Check out our new PWSWeather beta!
PWSweather.com
Personal Weather Stations
Station Observations

Enon Chester, VA 23836

Lat: 37.3609267, Lon: -77.31545840000001

Elevation: 89

Station Type: Acurite

http://www.wunderground.com/personal-weather-station/dashboard?ID=KVACHEST67

High Low Average
Temperature 0.0°F0.0°F 0.0°F0.0°F 0.0°F0.0°F
Dew Point 0.0°F0.0°F 0.0°F0.0°F 0.0°F0.0°F
Winds Calm -Calm - Calm Calm Calm Calm
Wind Gusts -- -- --
Humidity 0% 0% 0%
Pressure 0.00 in0.00 in 0.00 in0.00 in -
Precipitation 0.00 in0.0 mm - -
Hour Temp Dew Point Humidity Winds Wind Gusts Pressure Precip Precip Rate Daily Precip Total
12:00 AM 14.2°F-9.9°C 5.0°F-15.0°C 66% 1.7 mph ENE2.7 kmh ENE 2.7 mph4.3 kmh 30.55 in1034.5 mb 0.00 in0.0 mm 0.00 in0.0 mm 0.00 in0.0 mm
12:01 AM 14.2°F-9.9°C 4.6°F-15.2°C 65% 2.2 mph ESE3.5 kmh ESE 2.7 mph4.3 kmh 30.55 in1034.5 mb 0.00 in0.0 mm 0.00 in0.0 mm 0.00 in0.0 mm
12:02 AM 14.2°F-9.9°C 4.3°F-15.4°C 64% 1.7 mph E2.7 kmh E 2.7 mph4.3 kmh 30.55 in1034.5 mb 0.00 in0.0 mm 0.00 in0.0 mm 0.00 in0.0 mm
12:03 AM 14.4°F-9.8°C 4.1°F-15.5°C 63% 2.7 mph NE4.3 kmh NE 2.7 mph4.3 kmh 30.55 in1034.5 mb 0.00 in0.0 mm 0.00 in0.0 mm 0.00 in0.0 mm
12:04 AM 14.4°F-9.8°C 3.8°F-15.7°C 62% 4.7 mph ENE7.6 kmh ENE 4.7 mph7.6 kmh 30.55 in1034.5 mb 0.00 in0.0 mm 0.00 in0.0 mm 0.00 in0.0 mm
12:05 AM 14.5°F-9.7°C 3.5°F-15.8°C 61% 2.2 mph N3.5 kmh N 4.7 mph7.6 kmh 30.55 in1034.5 mb 0.00 in0.0 mm 0.00 in0.0 mm 0.00 in0.0 mm
12:06 AM 14.5°F-9.7°C 3.5°F-15.8°C 61% 1.7 mph NNE2.7 kmh NNE 4.7 mph7.6 kmh 30.55 in1034.5 mb 0.00 in0.0 mm 0.00 in0.0 mm 0.00 in0.0 mm
12:07 AM 14.5°F-9.7°C 3.5°F-15.8°C 61% 2.2 mph NNE3.5 kmh NNE 4.7 mph7.6 kmh 30.55 in1034.5 mb 0.00 in0.0 mm 0.00 in0.0 mm 0.00 in0.0 mm
12:08 AM 14.5°F-9.7°C 3.2°F-16.0°C 60% 1.7 mph NNE2.7 kmh NNE 4.7 mph7.6 kmh 30.55 in1034.5 mb 0.00 in0.0 mm 0.00 in0.0 mm 0.00 in0.0 mm
12:09 AM 14.5°F-9.7°C 3.2°F-16.0°C 60% 2.7 mph N4.3 kmh N 4.7 mph7.6 kmh 30.55 in1034.5 mb 0.00 in0.0 mm 0.00 in0.0 mm 0.00 in0.0 mm
12:10 AM 14.5°F-9.7°C 3.2°F-16.0°C 60% 2.2 mph ENE3.5 kmh ENE 4.7 mph7.6 kmh 30.55 in1034.5 mb 0.00 in0.0 mm 0.00 in0.0 mm 0.00 in0.0 mm
12:11 AM 14.5°F-9.7°C 3.2°F-16.0°C 60% 2.2 mph N3.5 kmh N 4.7 mph7.6 kmh 30.55 in1034.5 mb 0.00 in0.0 mm 0.00 in0.0 mm 0.00 in0.0 mm
12:12 AM 14.7°F-9.6°C 3.4°F-15.9°C 60% 3.2 mph ENE5.1 kmh ENE 4.7 mph7.6 kmh 30.55 in1034.5 mb 0.00 in0.0 mm 0.00 in0.0 mm 0.00 in0.0 mm
12:13 AM 14.9°F-9.5°C 3.6°F-15.8°C 60% 3.2 mph WNW5.1 kmh WNW 4.7 mph7.6 kmh 30.55 in1034.5 mb 0.00 in0.0 mm 0.00 in0.0 mm 0.00 in0.0 mm
12:14 AM 14.9°F-9.5°C 3.6°F-15.8°C 60% 2.2 mph ENE3.5 kmh ENE 4.7 mph7.6 kmh 30.55 in1034.5 mb 0.00 in0.0 mm 0.00 in0.0 mm 0.00 in0.0 mm
12:15 AM 14.9°F-9.5°C 3.6°F-15.8°C 60% 2.7 mph NW4.3 kmh NW 4.7 mph7.6 kmh 30.55 in1034.5 mb 0.00 in0.0 mm 0.00 in0.0 mm 0.00 in0.0 mm
12:16 AM 14.9°F-9.5°C 3.2°F-16.0°C 59% 1.1 mph NNW1.8 kmh NNW 4.7 mph7.6 kmh 30.55 in1034.5 mb 0.00 in0.0 mm 0.00 in0.0 mm 0.00 in0.0 mm
12:17 AM 14.9°F-9.5°C 3.6°F-15.8°C 60% 4.7 mph NNE7.6 kmh NNE 4.7 mph7.6 kmh 30.55 in1034.5 mb 0.00 in0.0 mm 0.00 in0.0 mm 0.00 in0.0 mm
12:18 AM 14.9°F-9.5°C 3.2°F-16.0°C 59% 1.1 mph WNW1.8 kmh WNW 4.7 mph7.6 kmh 30.55 in1034.5 mb 0.00 in0.0 mm 0.00 in0.0 mm 0.00 in0.0 mm
12:19 AM 14.9°F-9.5°C 3.6°F-15.8°C 60% 1.7 mph WNW2.7 kmh WNW 4.7 mph7.6 kmh 30.55 in1034.5 mb 0.00 in0.0 mm 0.00 in0.0 mm 0.00 in0.0 mm
12:20 AM 14.7°F-9.6°C 3.4°F-15.9°C 60% 4.2 mph ESE6.8 kmh ESE 4.7 mph7.6 kmh 30.55 in1034.5 mb 0.00 in0.0 mm 0.00 in0.0 mm 0.00 in0.0 mm
12:21 AM 14.7°F-9.6°C 3.0°F-16.1°C 59% 1.7 mph NE2.7 kmh NE 4.7 mph7.6 kmh 30.55 in1034.5 mb 0.00 in0.0 mm 0.00 in0.0 mm 0.00 in0.0 mm
12:22 AM 14.7°F-9.6°C 3.4°F-15.9°C 60% 2.7 mph E4.3 kmh E 4.7 mph7.6 kmh 30.55 in1034.5 mb 0.00 in0.0 mm 0.00 in0.0 mm 0.00 in0.0 mm
12:23 AM 14.7°F-9.6°C 3.0°F-16.1°C 59% 3.2 mph ESE5.1 kmh ESE 5.3 mph8.5 kmh 30.55 in1034.5 mb 0.00 in0.0 mm 0.00 in0.0 mm 0.00 in0.0 mm
12:24 AM 14.7°F-9.6°C 2.6°F-16.3°C 58% 2.7 mph N4.3 kmh N 5.3 mph8.5 kmh 30.55 in1034.5 mb 0.00 in0.0 mm 0.00 in0.0 mm 0.00 in0.0 mm
12:25 AM 14.7°F-9.6°C 2.6°F-16.3°C 58% 2.2 mph NE3.5 kmh NE 5.3 mph8.5 kmh 30.55 in1034.5 mb 0.00 in0.0 mm 0.00 in0.0 mm 0.00 in0.0 mm
12:26 AM 14.7°F-9.6°C 3.0°F-16.1°C 59% 2.7 mph SSW4.3 kmh SSW 5.3 mph8.5 kmh 30.55 in1034.5 mb 0.00 in0.0 mm 0.00 in0.0 mm 0.00 in0.0 mm
12:27 AM 14.7°F-9.6°C 3.0°F-16.1°C 59% 2.2 mph N3.5 kmh N 5.3 mph8.5 kmh 30.55 in1034.5 mb 0.00 in0.0 mm 0.00 in0.0 mm 0.00 in0.0 mm
12:28 AM 14.5°F-9.7°C 2.5°F-16.4°C 58% 1.7 mph NNE2.7 kmh NNE 5.3 mph8.5 kmh 30.55 in1034.5 mb 0.00 in0.0 mm 0.00 in0.0 mm 0.00 in0.0 mm
12:29 AM 14.5°F-9.7°C 2.5°F-16.4°C 58% 3.2 mph NNE5.1 kmh NNE 5.3 mph8.5 kmh 30.56 in1034.9 mb 0.00 in0.0 mm 0.00 in0.0 mm 0.00 in0.0 mm
12:30 AM 14.5°F-9.7°C 2.5°F-16.4°C 58% 2.7 mph NNE4.3 kmh NNE 5.3 mph8.5 kmh 30.56 in1034.9 mb 0.00 in0.0 mm 0.00 in0.0 mm 0.00 in0.0 mm
12:31 AM 14.5°F-9.7°C 2.5°F-16.4°C 58% 3.2 mph E5.1 kmh E 5.3 mph8.5 kmh 30.56 in1034.9 mb 0.00 in0.0 mm 0.00 in0.0 mm 0.00 in0.0 mm
12:32 AM 14.5°F-9.7°C 2.5°F-16.4°C 58% 2.2 mph WSW3.5 kmh WSW 5.3 mph8.5 kmh 30.56 in1034.9 mb 0.00 in0.0 mm 0.00 in0.0 mm 0.00 in0.0 mm
12:33 AM 14.7°F-9.6°C 2.6°F-16.3°C 58% 4.2 mph N6.8 kmh N 4.2 mph6.8 kmh 30.56 in1034.9 mb 0.00 in0.0 mm 0.00 in0.0 mm 0.00 in0.0 mm
12:34 AM 14.7°F-9.6°C 2.3°F-16.5°C 57% 5.8 mph NNE9.3 kmh NNE 5.8 mph9.3 kmh 30.56 in1034.9 mb 0.00 in0.0 mm 0.00 in0.0 mm 0.00 in0.0 mm
12:35 AM 14.7°F-9.6°C 1.9°F-16.7°C 56% 3.2 mph NNE5.1 kmh NNE 5.8 mph9.3 kmh 30.56 in1034.9 mb 0.00 in0.0 mm 0.00 in0.0 mm 0.00 in0.0 mm
12:36 AM 14.7°F-9.6°C 1.9°F-16.7°C 56% 1.7 mph WNW2.7 kmh WNW 5.8 mph9.3 kmh 30.56 in1034.9 mb 0.00 in0.0 mm 0.00 in0.0 mm 0.00 in0.0 mm
12:37 AM 14.7°F-9.6°C 2.3°F-16.5°C 57% 1.7 mph WNW2.7 kmh WNW 5.8 mph9.3 kmh 30.56 in1034.9 mb 0.00 in0.0 mm 0.00 in0.0 mm 0.00 in0.0 mm
12:38 AM 14.7°F-9.6°C 2.6°F-16.3°C 58% 2.2 mph NNW3.5 kmh NNW 5.8 mph9.3 kmh 30.56 in1034.9 mb 0.00 in0.0 mm 0.00 in0.0 mm 0.00 in0.0 mm
12:39 AM 14.7°F-9.6°C 2.6°F-16.3°C 58% 2.7 mph WNW4.3 kmh WNW 5.8 mph9.3 kmh 30.56 in1034.9 mb 0.00 in0.0 mm 0.00 in0.0 mm 0.00 in0.0 mm
12:40 AM 14.7°F-9.6°C 2.6°F-16.3°C 58% 2.2 mph WNW3.5 kmh WNW 5.8 mph9.3 kmh 30.56 in1034.9 mb 0.00 in0.0 mm 0.00 in0.0 mm 0.00 in0.0 mm
12:41 AM 14.7°F-9.6°C 2.6°F-16.3°C 58% 2.2 mph W3.5 kmh W 5.8 mph9.3 kmh 30.55 in1034.5 mb 0.00 in0.0 mm 0.00 in0.0 mm 0.00 in0.0 mm
12:42 AM 14.7°F-9.6°C 2.6°F-16.3°C 58% 1.7 mph WNW2.7 kmh WNW 5.8 mph9.3 kmh 30.55 in1034.5 mb 0.00 in0.0 mm 0.00 in0.0 mm 0.00 in0.0 mm
12:43 AM 14.5°F-9.7°C 2.5°F-16.4°C 58% 3.7 mph NNE6.0 kmh NNE 5.8 mph9.3 kmh 30.55 in1034.5 mb 0.00 in0.0 mm 0.00 in0.0 mm 0.00 in0.0 mm
12:44 AM 14.5°F-9.7°C 2.5°F-16.4°C 58% 3.2 mph NE5.1 kmh NE 5.8 mph9.3 kmh 30.55 in1034.5 mb 0.00 in0.0 mm 0.00 in0.0 mm 0.00 in0.0 mm
12:45 AM 14.5°F-9.7°C 2.5°F-16.4°C 58% 3.7 mph ENE6.0 kmh ENE 5.3 mph8.5 kmh 30.55 in1034.5 mb 0.00 in0.0 mm 0.00 in0.0 mm 0.00 in0.0 mm
12:46 AM 14.5°F-9.7°C 2.1°F-16.6°C 57% 4.7 mph E7.6 kmh E 5.3 mph8.5 kmh 30.55 in1034.5 mb 0.00 in0.0 mm 0.00 in0.0 mm 0.00 in0.0 mm
12:47 AM 14.5°F-9.7°C 2.1°F-16.6°C 57% 2.2 mph NNE3.5 kmh NNE 5.3 mph8.5 kmh 30.55 in1034.5 mb 0.00 in0.0 mm 0.00 in0.0 mm 0.00 in0.0 mm
12:48 AM 14.5°F-9.7°C 2.1°F-16.6°C 57% 1.7 mph SSW2.7 kmh SSW 5.3 mph8.5 kmh 30.55 in1034.5 mb 0.00 in0.0 mm 0.00 in0.0 mm 0.00 in0.0 mm
12:49 AM 14.5°F-9.7°C 2.5°F-16.4°C 58% 4.2 mph NNE6.8 kmh NNE 5.3 mph8.5 kmh 30.55 in1034.5 mb 0.00 in0.0 mm 0.00 in0.0 mm 0.00 in0.0 mm
12:50 AM 14.5°F-9.7°C 2.5°F-16.4°C 58% 1.1 mph SW1.8 kmh SW 5.3 mph8.5 kmh 30.55 in1034.5 mb 0.00 in0.0 mm 0.00 in0.0 mm 0.00 in0.0 mm
12:51 AM 14.4°F-9.8°C 2.7°F-16.3°C 59% 1.1 mph SSE1.8 kmh SSE 5.3 mph8.5 kmh 30.55 in1034.5 mb 0.00 in0.0 mm 0.00 in0.0 mm 0.00 in0.0 mm
12:52 AM 14.4°F-9.8°C 2.7°F-16.3°C 59% 2.2 mph SW3.5 kmh SW 5.3 mph8.5 kmh 30.56 in1034.9 mb 0.00 in0.0 mm 0.00 in0.0 mm 0.00 in0.0 mm
12:53 AM 14.4°F-9.8°C 2.7°F-16.3°C 59% 1.1 mph NW1.8 kmh NW 5.3 mph8.5 kmh 30.56 in1034.9 mb 0.00 in0.0 mm 0.00 in0.0 mm 0.00 in0.0 mm
12:54 AM 14.4°F-9.8°C 2.7°F-16.3°C 59% 1.7 mph NW2.7 kmh NW 4.7 mph7.6 kmh 30.56 in1034.9 mb 0.00 in0.0 mm 0.00 in0.0 mm 0.00 in0.0 mm
12:55 AM 14.2°F-9.9°C 2.5°F-16.4°C 59% 2.7 mph NW4.3 kmh NW 4.7 mph7.6 kmh 30.56 in1034.9 mb 0.00 in0.0 mm 0.00 in0.0 mm 0.00 in0.0 mm
12:56 AM 14.2°F-9.9°C 2.2°F-16.6°C 58% 2.7 mph ENE4.3 kmh ENE 4.2 mph6.8 kmh 30.56 in1034.9 mb 0.00 in0.0 mm 0.00 in0.0 mm 0.00 in0.0 mm
12:57 AM 14.0°F-10.0°C 2.0°F-16.7°C 58% 2.7 mph ENE4.3 kmh ENE 4.2 mph6.8 kmh 30.56 in1034.9 mb 0.00 in0.0 mm 0.00 in0.0 mm 0.00 in0.0 mm
12:58 AM 14.0°F-10.0°C 2.3°F-16.5°C 59% 1.7 mph S2.7 kmh S 4.2 mph6.8 kmh 30.56 in1034.9 mb 0.00 in0.0 mm 0.00 in0.0 mm 0.00 in0.0 mm
12:59 AM 14.0°F-10.0°C 2.7°F-16.3°C 60% 4.2 mph ESE6.8 kmh ESE 4.2 mph6.8 kmh 30.56 in1034.9 mb 0.00 in0.0 mm 0.00 in0.0 mm 0.00 in0.0 mm
01:00 AM 14.0°F-10.0°C 2.3°F-16.5°C 59% 1.7 mph NE2.7 kmh NE 4.2 mph6.8 kmh 30.56 in1034.9 mb 0.00 in0.0 mm 0.00 in0.0 mm 0.00 in0.0 mm
01:01 AM 14.0°F-10.0°C 2.3°F-16.5°C 59% 3.2 mph E5.1 kmh E 4.2 mph6.8 kmh 30.56 in1034.9 mb 0.00 in0.0 mm 0.00 in0.0 mm 0.00 in0.0 mm
01:02 AM 14.0°F-10.0°C 2.3°F-16.5°C 59% 5.3 mph ENE8.5 kmh ENE 5.3 mph8.5 kmh 30.56 in1034.9 mb 0.00 in0.0 mm 0.00 in0.0 mm 0.00 in0.0 mm
01:03 AM 14.0°F-10.0°C 2.0°F-16.7°C 58% 5.8 mph NNE9.3 kmh NNE 5.8 mph9.3 kmh 30.56 in1034.9 mb 0.00 in0.0 mm 0.00 in0.0 mm 0.00 in0.0 mm
01:04 AM 14.0°F-10.0°C 2.0°F-16.7°C 58% 2.2 mph ESE3.5 kmh ESE 5.8 mph9.3 kmh 30.57 in1035.2 mb 0.00 in0.0 mm 0.00 in0.0 mm 0.00 in0.0 mm
01:05 AM 14.0°F-10.0°C 2.0°F-16.7°C 58% 2.2 mph NE3.5 kmh NE 5.8 mph9.3 kmh 30.57 in1035.2 mb 0.00 in0.0 mm 0.00 in0.0 mm 0.00 in0.0 mm
01:06 AM 14.0°F-10.0°C 2.0°F-16.7°C 58% 1.7 mph NNE2.7 kmh NNE 5.8 mph9.3 kmh 30.57 in1035.2 mb 0.00 in0.0 mm 0.00 in0.0 mm 0.00 in0.0 mm
01:07 AM 14.0°F-10.0°C 2.3°F-16.5°C 59% 1.7 mph N2.7 kmh N 5.8 mph9.3 kmh 30.57 in1035.2 mb 0.00 in0.0 mm 0.00 in0.0 mm 0.00 in0.0 mm
01:08 AM 13.8°F-10.1°C 2.2°F-16.6°C 59% 4.2 mph E6.8 kmh E 5.8 mph9.3 kmh 30.57 in1035.2 mb 0.00 in0.0 mm 0.00 in0.0 mm 0.00 in0.0 mm
01:09 AM 13.8°F-10.1°C 1.8°F-16.8°C 58% 2.7 mph NNE4.3 kmh NNE 5.8 mph9.3 kmh 30.57 in1035.2 mb 0.00 in0.0 mm 0.00 in0.0 mm 0.00 in0.0 mm
01:10 AM 13.8°F-10.1°C 1.8°F-16.8°C 58% 2.7 mph NE4.3 kmh NE 5.8 mph9.3 kmh 30.57 in1035.2 mb 0.00 in0.0 mm 0.00 in0.0 mm 0.00 in0.0 mm
01:11 AM 13.8°F-10.1°C 1.8°F-16.8°C 58% 4.2 mph ENE6.8 kmh ENE 5.8 mph9.3 kmh 30.57 in1035.2 mb 0.00 in0.0 mm 0.00 in0.0 mm 0.00 in0.0 mm
01:12 AM 13.8°F-10.1°C 1.8°F-16.8°C 58% 4.7 mph NW7.6 kmh NW 5.8 mph9.3 kmh 30.57 in1035.2 mb 0.00 in0.0 mm 0.00 in0.0 mm 0.00 in0.0 mm
01:13 AM 13.8°F-10.1°C 1.8°F-16.8°C 58% 4.2 mph W6.8 kmh W 5.8 mph9.3 kmh 30.57 in1035.2 mb 0.00 in0.0 mm 0.00 in0.0 mm 0.00 in0.0 mm
01:14 AM 13.8°F-10.1°C 2.2°F-16.6°C 59% 2.2 mph WNW3.5 kmh WNW 5.8 mph9.3 kmh 30.57 in1035.2 mb 0.00 in0.0 mm 0.00 in0.0 mm 0.00 in0.0 mm
01:15 AM 13.8°F-10.1°C 2.2°F-16.6°C 59% 1.1 mph NNE1.8 kmh NNE 5.8 mph9.3 kmh 30.57 in1035.2 mb 0.00 in0.0 mm 0.00 in0.0 mm 0.00 in0.0 mm
01:16 AM 13.8°F-10.1°C 2.5°F-16.4°C 60% 1.1 mph N1.8 kmh N 5.8 mph9.3 kmh 30.56 in1034.9 mb 0.00 in0.0 mm 0.00 in0.0 mm 0.00 in0.0 mm
01:17 AM 13.8°F-10.1°C 2.5°F-16.4°C 60% 3.2 mph WSW5.1 kmh WSW 5.8 mph9.3 kmh 30.56 in1034.9 mb 0.00 in0.0 mm 0.00 in0.0 mm 0.00 in0.0 mm
01:18 AM 13.8°F-10.1°C 2.5°F-16.4°C 60% 3.7 mph N6.0 kmh N 4.7 mph7.6 kmh 30.56 in1034.9 mb 0.00 in0.0 mm 0.00 in0.0 mm 0.00 in0.0 mm
01:19 AM 13.8°F-10.1°C 2.2°F-16.6°C 59% 4.7 mph NE7.6 kmh NE 4.7 mph7.6 kmh 30.56 in1034.9 mb 0.00 in0.0 mm 0.00 in0.0 mm 0.00 in0.0 mm
01:20 AM 13.8°F-10.1°C 2.2°F-16.6°C 59% 5.3 mph NE8.5 kmh NE 5.8 mph9.3 kmh 30.56 in1034.9 mb 0.00 in0.0 mm 0.00 in0.0 mm 0.00 in0.0 mm
01:21 AM 13.8°F-10.1°C 2.2°F-16.6°C 59% 2.2 mph NNW3.5 kmh NNW 5.8 mph9.3 kmh 30.56 in1034.9 mb 0.00 in0.0 mm 0.00 in0.0 mm 0.00 in0.0 mm
01:22 AM 13.8°F-10.1°C 2.2°F-16.6°C 59% 2.2 mph N3.5 kmh N 5.8 mph9.3 kmh 30.56 in1034.9 mb 0.00 in0.0 mm 0.00 in0.0 mm 0.00 in0.0 mm
01:23 AM 13.6°F-10.2°C 2.0°F-16.7°C 59% 3.2 mph NNE5.1 kmh NNE 5.8 mph9.3 kmh 30.56 in1034.9 mb 0.00 in0.0 mm 0.00 in0.0 mm 0.00 in0.0 mm
01:24 AM 13.6°F-10.2°C 2.0°F-16.7°C 59% 1.7 mph NE2.7 kmh NE 5.8 mph9.3 kmh 30.56 in1034.9 mb 0.00 in0.0 mm 0.00 in0.0 mm 0.00 in0.0 mm
01:25 AM 13.6°F-10.2°C 2.0°F-16.7°C 59% 2.2 mph N3.5 kmh N 5.8 mph9.3 kmh 30.56 in1034.9 mb 0.00 in0.0 mm 0.00 in0.0 mm 0.00 in0.0 mm
01:26 AM 13.5°F-10.3°C 2.2°F-16.6°C 60% 2.7 mph WNW4.3 kmh WNW 5.8 mph9.3 kmh 30.56 in1034.9 mb 0.00 in0.0 mm 0.00 in0.0 mm 0.00 in0.0 mm
01:27 AM 13.5°F-10.3°C 2.2°F-16.6°C 60% 2.2 mph W3.5 kmh W 5.8 mph9.3 kmh 30.56 in1034.9 mb 0.00 in0.0 mm 0.00 in0.0 mm 0.00 in0.0 mm
01:28 AM 13.5°F-10.3°C 2.2°F-16.6°C 60% 2.7 mph NNE4.3 kmh NNE 5.8 mph9.3 kmh 30.57 in1035.2 mb 0.00 in0.0 mm 0.00 in0.0 mm 0.00 in0.0 mm
01:29 AM 13.5°F-10.3°C 2.2°F-16.6°C 60% 2.2 mph W3.5 kmh W 5.8 mph9.3 kmh 30.57 in1035.2 mb 0.00 in0.0 mm 0.00 in0.0 mm 0.00 in0.0 mm
01:30 AM 13.5°F-10.3°C 2.2°F-16.6°C 60% 3.2 mph SE5.1 kmh SE 5.3 mph8.5 kmh 30.57 in1035.2 mb 0.00 in0.0 mm 0.00 in0.0 mm 0.00 in0.0 mm
01:31 AM 13.5°F-10.3°C 2.2°F-16.6°C 60% 2.2 mph WSW3.5 kmh WSW 4.7 mph7.6 kmh 30.57 in1035.2 mb 0.00 in0.0 mm 0.00 in0.0 mm 0.00 in0.0 mm
01:32 AM 13.5°F-10.3°C 2.2°F-16.6°C 60% 3.7 mph NE6.0 kmh NE 4.7 mph7.6 kmh 30.57 in1035.2 mb 0.00 in0.0 mm 0.00 in0.0 mm 0.00 in0.0 mm
01:33 AM 13.5°F-10.3°C 2.2°F-16.6°C 60% 1.7 mph W2.7 kmh W 4.7 mph7.6 kmh 30.57 in1035.2 mb 0.00 in0.0 mm 0.00 in0.0 mm 0.00 in0.0 mm
01:34 AM 13.5°F-10.3°C 2.2°F-16.6°C 60% 5.3 mph NE8.5 kmh NE 5.3 mph8.5 kmh 30.57 in1035.2 mb 0.00 in0.0 mm 0.00 in0.0 mm 0.00 in0.0 mm
01:36 AM 13.3°F-10.4°C 1.7°F-16.8°C 59% 3.2 mph NE5.1 kmh NE 5.3 mph8.5 kmh 30.57 in1035.2 mb 0.00 in0.0 mm 0.00 in0.0 mm 0.00 in0.0 mm
01:37 AM 13.3°F-10.4°C 1.7°F-16.8°C 59% 2.2 mph NNE3.5 kmh NNE 5.3 mph8.5 kmh 30.57 in1035.2 mb 0.00 in0.0 mm 0.00 in0.0 mm 0.00 in0.0 mm
01:38 AM 13.3°F-10.4°C 1.7°F-16.8°C 59% 2.2 mph WNW3.5 kmh WNW 5.3 mph8.5 kmh 30.57 in1035.2 mb 0.00 in0.0 mm 0.00 in0.0 mm 0.00 in0.0 mm
01:39 AM 13.3°F-10.4°C 2.0°F-16.7°C 60% 4.2 mph ENE6.8 kmh ENE 5.3 mph8.5 kmh 30.57 in1035.2 mb 0.00 in0.0 mm 0.00 in0.0 mm 0.00 in0.0 mm
01:40 AM 13.3°F-10.4°C 2.0°F-16.7°C 60% 4.7 mph NNE7.6 kmh NNE 5.3 mph8.5 kmh 30.57 in1035.2 mb 0.00 in0.0 mm 0.00 in0.0 mm 0.00 in0.0 mm
01:41 AM 13.3°F-10.4°C 2.0°F-16.7°C 60% 3.2 mph ENE5.1 kmh ENE 5.3 mph8.5 kmh 30.58 in1035.6 mb 0.00 in0.0 mm 0.00 in0.0 mm 0.00 in0.0 mm
01:42 AM 13.3°F-10.4°C 1.7°F-16.8°C 59% 1.7 mph NNE2.7 kmh NNE 5.3 mph8.5 kmh 30.58 in1035.6 mb 0.00 in0.0 mm 0.00 in0.0 mm 0.00 in0.0 mm
01:43 AM 13.3°F-10.4°C 1.7°F-16.8°C 59% 1.7 mph W2.7 kmh W 5.3 mph8.5 kmh 30.58 in1035.6 mb 0.00 in0.0 mm 0.00 in0.0 mm 0.00 in0.0 mm
01:44 AM 13.3°F-10.4°C 2.0°F-16.7°C 60% 2.7 mph N4.3 kmh N 5.3 mph8.5 kmh 30.58 in1035.6 mb 0.00 in0.0 mm 0.00 in0.0 mm 0.00 in0.0 mm
01:45 AM 13.1°F-10.5°C 1.5°F-16.9°C 59% 1.7 mph NNE2.7 kmh NNE 5.8 mph9.3 kmh 30.58 in1035.6 mb 0.00 in0.0 mm 0.00 in0.0 mm 0.00 in0.0 mm
01:46 AM 13.1°F-10.5°C 1.5°F-16.9°C 59% 1.7 mph N2.7 kmh N 5.8 mph9.3 kmh 30.58 in1035.6 mb 0.00 in0.0 mm 0.00 in0.0 mm 0.00 in0.0 mm
01:47 AM 13.1°F-10.5°C 1.5°F-16.9°C 59% 2.2 mph NE3.5 kmh NE 5.8 mph9.3 kmh 30.58 in1035.6 mb 0.00 in0.0 mm 0.00 in0.0 mm 0.00 in0.0 mm
01:48 AM 12.9°F-10.6°C 1.3°F-17.1°C 59% 1.7 mph NNE2.7 kmh NNE 5.8 mph9.3 kmh 30.58 in1035.6 mb 0.00 in0.0 mm 0.00 in0.0 mm 0.00 in0.0 mm
01:49 AM 12.9°F-10.6°C 1.3°F-17.1°C 59% 2.2 mph NNE3.5 kmh NNE 5.8 mph9.3 kmh 30.58 in1035.6 mb 0.00 in0.0 mm 0.00 in0.0 mm 0.00 in0.0 mm
01:50 AM 12.9°F-10.6°C 1.7°F-16.8°C 60% 1.1 mph W1.8 kmh W 5.8 mph9.3 kmh 30.58 in1035.6 mb 0.00 in0.0 mm 0.00 in0.0 mm 0.00 in0.0 mm
01:51 AM 12.7°F-10.7°C 1.5°F-16.9°C 60% 2.7 mph NW4.3 kmh NW 5.8 mph9.3 kmh 30.58 in1035.6 mb 0.00 in0.0 mm 0.00 in0.0 mm 0.00 in0.0 mm
01:52 AM 12.7°F-10.7°C 1.5°F-16.9°C 60% 1.1 mph WSW1.8 kmh WSW 5.8 mph9.3 kmh 30.58 in1035.6 mb 0.00 in0.0 mm 0.00 in0.0 mm 0.00 in0.0 mm
01:53 AM 12.7°F-10.7°C 1.5°F-16.9°C 60% 2.2 mph NE3.5 kmh NE 5.8 mph9.3 kmh 30.58 in1035.6 mb 0.00 in0.0 mm 0.00 in0.0 mm 0.00 in0.0 mm
01:54 AM 12.7°F-10.7°C 1.8°F-16.8°C 61% 1.7 mph NW2.7 kmh NW 5.8 mph9.3 kmh 30.58 in1035.6 mb 0.00 in0.0 mm 0.00 in0.0 mm 0.00 in0.0 mm
01:55 AM 12.7°F-10.7°C 1.8°F-16.8°C 61% 1.7 mph SW2.7 kmh SW 3.7 mph6.0 kmh 30.58 in1035.6 mb 0.00 in0.0 mm 0.00 in0.0 mm 0.00 in0.0 mm
01:56 AM 12.7°F-10.7°C 1.8°F-16.8°C 61% 1.1 mph NE1.8 kmh NE 3.7 mph6.0 kmh 30.58 in1035.6 mb 0.00 in0.0 mm 0.00 in0.0 mm 0.00 in0.0 mm
01:57 AM 12.6°F-10.8°C 1.7°F-16.8°C 61% Calm Calm 3.7 mph6.0 kmh 30.58 in1035.6 mb 0.00 in0.0 mm 0.00 in0.0 mm 0.00 in0.0 mm
01:58 AM 12.6°F-10.8°C 1.7°F-16.8°C 61% 2.2 mph SSW3.5 kmh SSW 3.7 mph6.0 kmh 30.58 in1035.6 mb 0.00 in0.0 mm 0.00 in0.0 mm 0.00 in0.0 mm
01:59 AM 12.6°F-10.8°C 1.7°F-16.8°C 61% 2.2 mph SW3.5 kmh SW 3.7 mph6.0 kmh 30.58 in1035.6 mb 0.00 in0.0 mm 0.00 in0.0 mm 0.00 in0.0 mm
02:00 AM 12.6°F-10.8°C 2.1°F-16.6°C 62% 1.7 mph W2.7 kmh W 3.7 mph6.0 kmh 30.58 in1035.6 mb 0.00 in0.0 mm 0.00 in0.0 mm 0.00 in0.0 mm
02:01 AM 12.6°F-10.8°C 2.1°F-16.6°C 62% 1.7 mph NE2.7 kmh NE 3.7 mph6.0 kmh 30.58 in1035.6 mb 0.00 in0.0 mm 0.00 in0.0 mm 0.00 in0.0 mm
02:02 AM 12.4°F-10.9°C 1.9°F-16.7°C 62% 1.1 mph NE1.8 kmh NE 3.7 mph6.0 kmh 30.58 in1035.6 mb 0.00 in0.0 mm 0.00 in0.0 mm 0.00 in0.0 mm
02:03 AM 12.2°F-11.0°C 1.7°F-16.8°C 62% 2.2 mph W3.5 kmh W 3.7 mph6.0 kmh 30.58 in1035.6 mb 0.00 in0.0 mm 0.00 in0.0 mm 0.00 in0.0 mm
02:04 AM 12.2°F-11.0°C 1.7°F-16.8°C 62% 2.7 mph NNE4.3 kmh NNE 3.7 mph6.0 kmh 30.58 in1035.6 mb 0.00 in0.0 mm 0.00 in0.0 mm 0.00 in0.0 mm
02:05 AM 12.2°F-11.0°C 1.7°F-16.8°C 62% 4.7 mph N7.6 kmh N 4.7 mph7.6 kmh 30.59 in1035.9 mb 0.00 in0.0 mm 0.00 in0.0 mm 0.00 in0.0 mm
02:06 AM 12.2°F-11.0°C 1.4°F-17.0°C 61% 1.7 mph NE2.7 kmh NE 4.7 mph7.6 kmh 30.59 in1035.9 mb 0.00 in0.0 mm 0.00 in0.0 mm 0.00 in0.0 mm
02:07 AM 12.2°F-11.0°C 1.4°F-17.0°C 61% 1.1 mph WSW1.8 kmh WSW 4.7 mph7.6 kmh 30.59 in1035.9 mb 0.00 in0.0 mm 0.00 in0.0 mm 0.00 in0.0 mm
02:08 AM 12.2°F-11.0°C 1.4°F-17.0°C 61% 4.2 mph NW6.8 kmh NW 4.7 mph7.6 kmh 30.59 in1035.9 mb 0.00 in0.0 mm 0.00 in0.0 mm 0.00 in0.0 mm
02:09 AM 12.4°F-10.9°C 1.5°F-16.9°C 61% 1.7 mph W2.7 kmh W 4.7 mph7.6 kmh 30.59 in1035.9 mb 0.00 in0.0 mm 0.00 in0.0 mm 0.00 in0.0 mm
02:10 AM 12.4°F-10.9°C 1.5°F-16.9°C 61% 2.2 mph ESE3.5 kmh ESE 4.7 mph7.6 kmh 30.59 in1035.9 mb 0.00 in0.0 mm 0.00 in0.0 mm 0.00 in0.0 mm
02:11 AM 12.2°F-11.0°C 1.4°F-17.0°C 61% 3.2 mph E5.1 kmh E 4.7 mph7.6 kmh 30.59 in1035.9 mb 0.00 in0.0 mm 0.00 in0.0 mm 0.00 in0.0 mm
02:12 AM 12.2°F-11.0°C 1.4°F-17.0°C 61% 2.2 mph ENE3.5 kmh ENE 4.7 mph7.6 kmh 30.59 in1035.9 mb 0.00 in0.0 mm 0.00 in0.0 mm 0.00 in0.0 mm
02:13 AM 12.2°F-11.0°C 1.4°F-17.0°C 61% 1.7 mph SSW2.7 kmh SSW 4.7 mph7.6 kmh 30.59 in1035.9 mb 0.00 in0.0 mm 0.00 in0.0 mm 0.00 in0.0 mm
02:14 AM 12.2°F-11.0°C 1.4°F-17.0°C 61% 2.2 mph WNW3.5 kmh WNW 4.7 mph7.6 kmh 30.59 in1035.9 mb 0.00 in0.0 mm 0.00 in0.0 mm 0.00 in0.0 mm
02:15 AM 12.2°F-11.0°C 1.4°F-17.0°C 61% 1.1 mph WNW1.8 kmh WNW 4.7 mph7.6 kmh 30.59 in1035.9 mb 0.00 in0.0 mm 0.00 in0.0 mm 0.00 in0.0 mm
02:16 AM 12.2°F-11.0°C 1.4°F-17.0°C 61% 2.2 mph NNW3.5 kmh NNW 4.2 mph6.8 kmh 30.59 in1035.9 mb 0.00 in0.0 mm 0.00 in0.0 mm 0.00 in0.0 mm
02:17 AM 12.2°F-11.0°C 1.4°F-17.0°C 61% 3.2 mph N5.1 kmh N 4.2 mph6.8 kmh 30.59 in1035.9 mb 0.00 in0.0 mm 0.00 in0.0 mm 0.00 in0.0 mm
02:18 AM 12.2°F-11.0°C 1.7°F-16.8°C 62% 1.7 mph W2.7 kmh W 4.2 mph6.8 kmh 30.59 in1035.9 mb 0.00 in0.0 mm 0.00 in0.0 mm 0.00 in0.0 mm
02:19 AM 12.2°F-11.0°C 2.0°F-16.7°C 63% 1.1 mph WSW1.8 kmh WSW 3.7 mph6.0 kmh 30.59 in1035.9 mb 0.00 in0.0 mm 0.00 in0.0 mm 0.00 in0.0 mm
02:20 AM 12.2°F-11.0°C 2.0°F-16.7°C 63% 1.1 mph NNE1.8 kmh NNE 3.7 mph6.0 kmh 30.59 in1035.9 mb 0.00 in0.0 mm 0.00 in0.0 mm 0.00 in0.0 mm
02:21 AM 11.8°F-11.2°C 1.7°F-16.8°C 63% 1.7 mph W2.7 kmh W 3.7 mph6.0 kmh 30.59 in1035.9 mb 0.00 in0.0 mm 0.00 in0.0 mm 0.00 in0.0 mm
02:22 AM 11.8°F-11.2°C 1.7°F-16.8°C 63% Calm Calm 3.2 mph5.1 kmh 30.59 in1035.9 mb 0.00 in0.0 mm 0.00 in0.0 mm 0.00 in0.0 mm
02:23 AM 11.8°F-11.2°C 1.7°F-16.8°C 63% 1.1 mph W1.8 kmh W 3.2 mph5.1 kmh 30.59 in1035.9 mb 0.00 in0.0 mm 0.00 in0.0 mm 0.00 in0.0 mm
02:24 AM 11.8°F-11.2°C 2.0°F-16.7°C 64% Calm Calm 3.2 mph5.1 kmh 30.59 in1035.9 mb 0.00 in0.0 mm 0.00 in0.0 mm 0.00 in0.0 mm
02:25 AM 11.8°F-11.2°C 2.0°F-16.7°C 64% Calm Calm 3.2 mph5.1 kmh 30.59 in1035.9 mb 0.00 in0.0 mm 0.00 in0.0 mm 0.00 in0.0 mm
02:26 AM 11.8°F-11.2°C 2.0°F-16.7°C 64% Calm Calm 3.2 mph5.1 kmh 30.59 in1035.9 mb 0.00 in0.0 mm 0.00 in0.0 mm 0.00 in0.0 mm
02:27 AM 11.8°F-11.2°C 2.3°F-16.5°C 65% Calm Calm 3.2 mph5.1 kmh 30.59 in1035.9 mb 0.00 in0.0 mm 0.00 in0.0 mm 0.00 in0.0 mm
02:28 AM 11.8°F-11.2°C 2.3°F-16.5°C 65% Calm Calm 1.7 mph2.7 kmh 30.59 in1035.9 mb 0.00 in0.0 mm 0.00 in0.0 mm 0.00 in0.0 mm
02:29 AM 11.8°F-11.2°C 2.7°F-16.3°C 66% Calm Calm 1.7 mph2.7 kmh 30.59 in1035.9 mb 0.00 in0.0 mm 0.00 in0.0 mm 0.00 in0.0 mm
02:30 AM 11.5°F-11.4°C 2.1°F-16.6°C 65% Calm Calm 1.7 mph2.7 kmh 30.59 in1035.9 mb 0.00 in0.0 mm 0.00 in0.0 mm 0.00 in0.0 mm
02:31 AM 11.5°F-11.4°C 2.1°F-16.6°C 65% Calm Calm 1.7 mph2.7 kmh 30.59 in1035.9 mb 0.00 in0.0 mm 0.00 in0.0 mm 0.00 in0.0 mm
02:32 AM 11.5°F-11.4°C 2.1°F-16.6°C 65% Calm Calm 1.1 mph1.8 kmh 30.59 in1035.9 mb 0.00 in0.0 mm 0.00 in0.0 mm 0.00 in0.0 mm
02:33 AM 11.3°F-11.5°C 1.5°F-16.9°C 64% Calm Calm 1.7 mph2.7 kmh 30.59 in1035.9 mb 0.00 in0.0 mm 0.00 in0.0 mm 0.00 in0.0 mm
02:34 AM 11.3°F-11.5°C 1.5°F-16.9°C 64% 1.1 mph W1.8 kmh W 1.7 mph2.7 kmh 30.59 in1035.9 mb 0.00 in0.0 mm 0.00 in0.0 mm 0.00 in0.0 mm
02:35 AM 11.3°F-11.5°C 1.5°F-16.9°C 64% Calm Calm 1.7 mph2.7 kmh 30.59 in1035.9 mb 0.00 in0.0 mm 0.00 in0.0 mm 0.00 in0.0 mm
02:36 AM 11.3°F-11.5°C 1.5°F-16.9°C 64% Calm Calm 1.7 mph2.7 kmh 30.59 in1035.9 mb 0.00 in0.0 mm 0.00 in0.0 mm 0.00 in0.0 mm
02:37 AM 11.3°F-11.5°C 1.5°F-16.9°C 64% 1.7 mph W2.7 kmh W 2.2 mph3.5 kmh 30.59 in1035.9 mb 0.00 in0.0 mm 0.00 in0.0 mm 0.00 in0.0 mm
02:38 AM 11.5°F-11.4°C 1.7°F-16.8°C 64% 1.7 mph WNW2.7 kmh WNW 2.7 mph4.3 kmh 30.59 in1035.9 mb 0.00 in0.0 mm 0.00 in0.0 mm 0.00 in0.0 mm
02:39 AM 11.1°F-11.6°C 1.0°F-17.2°C 63% 3.2 mph NNE5.1 kmh NNE 3.2 mph5.1 kmh 30.59 in1035.9 mb 0.00 in0.0 mm 0.00 in0.0 mm 0.00 in0.0 mm
02:40 AM 11.1°F-11.6°C 1.0°F-17.2°C 63% 1.1 mph W1.8 kmh W 3.2 mph5.1 kmh 30.59 in1035.9 mb 0.00 in0.0 mm 0.00 in0.0 mm 0.00 in0.0 mm
02:41 AM 11.1°F-11.6°C 1.3°F-17.1°C 64% Calm Calm 3.2 mph5.1 kmh 30.60 in1036.2 mb 0.00 in0.0 mm 0.00 in0.0 mm 0.00 in0.0 mm
02:42 AM 11.1°F-11.6°C 1.7°F-16.8°C 65% 1.1 mph W1.8 kmh W 3.2 mph5.1 kmh 30.60 in1036.2 mb 0.00 in0.0 mm 0.00 in0.0 mm 0.00 in0.0 mm
02:43 AM 11.1°F-11.6°C 1.7°F-16.8°C 65% 1.1 mph W1.8 kmh W 3.2 mph5.1 kmh 30.60 in1036.2 mb 0.00 in0.0 mm 0.00 in0.0 mm 0.00 in0.0 mm
02:44 AM 11.1°F-11.6°C 2.0°F-16.7°C 66% 1.7 mph W2.7 kmh W 3.2 mph5.1 kmh 30.60 in1036.2 mb 0.00 in0.0 mm 0.00 in0.0 mm 0.00 in0.0 mm
02:45 AM 11.1°F-11.6°C 2.0°F-16.7°C 66% 2.2 mph W3.5 kmh W 3.2 mph5.1 kmh 30.60 in1036.2 mb 0.00 in0.0 mm 0.00 in0.0 mm 0.00 in0.0 mm
02:46 AM 11.1°F-11.6°C 2.0°F-16.7°C 66% 2.2 mph W3.5 kmh W 3.2 mph5.1 kmh 30.60 in1036.2 mb 0.00 in0.0 mm 0.00 in0.0 mm 0.00 in0.0 mm
02:47 AM 11.1°F-11.6°C 2.0°F-16.7°C 66% Calm Calm 3.2 mph5.1 kmh 30.60 in1036.2 mb 0.00 in0.0 mm 0.00 in0.0 mm 0.00 in0.0 mm
02:48 AM 10.9°F-11.7°C 2.1°F-16.6°C 67% Calm Calm 3.2 mph5.1 kmh 30.60 in1036.2 mb 0.00 in0.0 mm 0.00 in0.0 mm 0.00 in0.0 mm
02:49 AM 10.9°F-11.7°C 2.1°F-16.6°C 67% Calm Calm 3.2 mph5.1 kmh 30.60 in1036.2 mb 0.00 in0.0 mm 0.00 in0.0 mm 0.00 in0.0 mm
02:50 AM 10.8°F-11.8°C 1.7°F-16.8°C 66% Calm Calm 2.2 mph3.5 kmh 30.60 in1036.2 mb 0.00 in0.0 mm 0.00 in0.0 mm 0.00 in0.0 mm
02:51 AM 10.8°F-11.8°C 1.7°F-16.8°C 66% Calm Calm 2.2 mph3.5 kmh 30.60 in1036.2 mb 0.00 in0.0 mm 0.00 in0.0 mm 0.00 in0.0 mm
02:52 AM 10.8°F-11.8°C 1.7°F-16.8°C 66% Calm Calm 2.2 mph3.5 kmh 30.60 in1036.2 mb 0.00 in0.0 mm 0.00 in0.0 mm 0.00 in0.0 mm
02:53 AM 10.8°F-11.8°C 1.7°F-16.8°C 66% 1.7 mph W2.7 kmh W 2.2 mph3.5 kmh 30.60 in1036.2 mb 0.00 in0.0 mm 0.00 in0.0 mm 0.00 in0.0 mm
02:54 AM 10.8°F-11.8°C 1.7°F-16.8°C 66% 1.7 mph W2.7 kmh W 2.2 mph3.5 kmh 30.60 in1036.2 mb 0.00 in0.0 mm 0.00 in0.0 mm 0.00 in0.0 mm
02:55 AM 10.8°F-11.8°C 1.7°F-16.8°C 66% 1.7 mph W2.7 kmh W 2.2 mph3.5 kmh 30.60 in1036.2 mb 0.00 in0.0 mm 0.00 in0.0 mm 0.00 in0.0 mm
02:56 AM 10.9°F-11.7°C 2.1°F-16.6°C 67% 1.1 mph W1.8 kmh W 2.2 mph3.5 kmh 30.60 in1036.2 mb 0.00 in0.0 mm 0.00 in0.0 mm 0.00 in0.0 mm
02:57 AM 10.9°F-11.7°C 2.1°F-16.6°C 67% Calm Calm 2.2 mph3.5 kmh 30.60 in1036.2 mb 0.00 in0.0 mm 0.00 in0.0 mm 0.00 in0.0 mm
02:58 AM 10.8°F-11.8°C 2.0°F-16.7°C 67% Calm Calm 2.2 mph3.5 kmh 30.60 in1036.2 mb 0.00 in0.0 mm 0.00 in0.0 mm 0.00 in0.0 mm
02:59 AM 10.6°F-11.9°C 2.2°F-16.6°C 68% 1.1 mph E1.8 kmh E 2.2 mph3.5 kmh 30.60 in1036.2 mb 0.00 in0.0 mm 0.00 in0.0 mm 0.00 in0.0 mm
03:00 AM 10.2°F-12.1°C 1.5°F-16.9°C 67% 1.1 mph E1.8 kmh E 2.2 mph3.5 kmh 30.60 in1036.2 mb 0.00 in0.0 mm 0.00 in0.0 mm 0.00 in0.0 mm
03:01 AM 10.2°F-12.1°C 1.5°F-16.9°C 67% 1.7 mph WNW2.7 kmh WNW 2.2 mph3.5 kmh 30.60 in1036.2 mb 0.00 in0.0 mm 0.00 in0.0 mm 0.00 in0.0 mm
03:02 AM 10.2°F-12.1°C 1.5°F-16.9°C 67% Calm Calm 2.2 mph3.5 kmh 30.60 in1036.2 mb 0.00 in0.0 mm 0.00 in0.0 mm 0.00 in0.0 mm
03:03 AM 10.2°F-12.1°C 1.5°F-16.9°C 67% 1.7 mph ENE2.7 kmh ENE 2.2 mph3.5 kmh 30.60 in1036.2 mb 0.00 in0.0 mm 0.00 in0.0 mm 0.00 in0.0 mm
03:04 AM 10.2°F-12.1°C 1.5°F-16.9°C 67% 1.1 mph SE1.8 kmh SE 2.2 mph3.5 kmh 30.60 in1036.2 mb 0.00 in0.0 mm 0.00 in0.0 mm 0.00 in0.0 mm
03:05 AM 10.0°F-12.2°C 1.3°F-17.1°C 67% 1.1 mph NE1.8 kmh NE 2.2 mph3.5 kmh 30.60 in1036.2 mb 0.00 in0.0 mm 0.00 in0.0 mm 0.00 in0.0 mm
03:06 AM 9.9°F-12.3°C 1.2°F-17.1°C 67% Calm Calm 2.2 mph3.5 kmh 30.60 in1036.2 mb 0.00 in0.0 mm 0.00 in0.0 mm 0.00 in0.0 mm
03:07 AM 9.9°F-12.3°C 1.2°F-17.1°C 67% Calm Calm 2.2 mph3.5 kmh 30.60 in1036.2 mb 0.00 in0.0 mm 0.00 in0.0 mm 0.00 in0.0 mm
03:08 AM 9.9°F-12.3°C 1.2°F-17.1°C 67% 1.1 mph ENE1.8 kmh ENE 2.2 mph3.5 kmh 30.60 in1036.2 mb 0.00 in0.0 mm 0.00 in0.0 mm 0.00 in0.0 mm
03:09 AM 9.9°F-12.3°C 1.2°F-17.1°C 67% 1.7 mph ENE2.7 kmh ENE 2.2 mph3.5 kmh 30.60 in1036.2 mb 0.00 in0.0 mm 0.00 in0.0 mm 0.00 in0.0 mm
03:10 AM 9.9°F-12.3°C 1.2°F-17.1°C 67% Calm Calm 2.2 mph3.5 kmh 30.60 in1036.2 mb 0.00 in0.0 mm 0.00 in0.0 mm 0.00 in0.0 mm
03:11 AM 9.7°F-12.4°C 1.0°F-17.2°C 67% Calm Calm 1.7 mph2.7 kmh 30.60 in1036.2 mb 0.00 in0.0 mm 0.00 in0.0 mm 0.00 in0.0 mm
03:12 AM 9.7°F-12.4°C 1.0°F-17.2°C 67% Calm Calm 1.7 mph2.7 kmh 30.60 in1036.2 mb 0.00 in0.0 mm 0.00 in0.0 mm 0.00 in0.0 mm
03:13 AM 9.7°F-12.4°C 1.3°F-17.1°C 68% 2.2 mph NNE3.5 kmh NNE 2.2 mph3.5 kmh 30.60 in1036.2 mb 0.00 in0.0 mm 0.00 in0.0 mm 0.00 in0.0 mm
03:14 AM 9.7°F-12.4°C 1.0°F-17.2°C 67% 2.2 mph NNE3.5 kmh NNE 4.2 mph6.8 kmh 30.60 in1036.2 mb 0.00 in0.0 mm 0.00 in0.0 mm 0.00 in0.0 mm
03:15 AM 9.7°F-12.4°C 1.0°F-17.2°C 67% 1.1 mph NNE1.8 kmh NNE 4.2 mph6.8 kmh 30.60 in1036.2 mb 0.00 in0.0 mm 0.00 in0.0 mm 0.00 in0.0 mm
03:16 AM 9.7°F-12.4°C 1.0°F-17.2°C 67% 1.7 mph WNW2.7 kmh WNW 4.2 mph6.8 kmh 30.60 in1036.2 mb 0.00 in0.0 mm 0.00 in0.0 mm 0.00 in0.0 mm
03:17 AM 9.9°F-12.3°C 1.2°F-17.1°C 67% 1.1 mph W1.8 kmh W 4.2 mph6.8 kmh 30.60 in1036.2 mb 0.00 in0.0 mm 0.00 in0.0 mm 0.00 in0.0 mm
03:18 AM 10.0°F-12.2°C 1.3°F-17.1°C 67% Calm Calm 4.2 mph6.8 kmh 30.60 in1036.2 mb 0.00 in0.0 mm 0.00 in0.0 mm 0.00 in0.0 mm
03:19 AM 10.0°F-12.2°C 1.6°F-16.9°C 68% 1.1 mph W1.8 kmh W 4.2 mph6.8 kmh 30.60 in1036.2 mb 0.00 in0.0 mm 0.00 in0.0 mm 0.00 in0.0 mm
03:20 AM 10.0°F-12.2°C 1.6°F-16.9°C 68% 1.1 mph NNE1.8 kmh NNE 4.2 mph6.8 kmh 30.60 in1036.2 mb 0.00 in0.0 mm 0.00 in0.0 mm 0.00 in0.0 mm
03:21 AM 9.9°F-12.3°C 1.2°F-17.1°C 67% 2.2 mph NNW3.5 kmh NNW 4.2 mph6.8 kmh 30.60 in1036.2 mb 0.00 in0.0 mm 0.00 in0.0 mm 0.00 in0.0 mm
03:22 AM 9.9°F-12.3°C 1.2°F-17.1°C 67% Calm Calm 4.2 mph6.8 kmh 30.60 in1036.2 mb 0.00 in0.0 mm 0.00 in0.0 mm 0.00 in0.0 mm
03:23 AM 9.9°F-12.3°C 1.2°F-17.1°C 67% 1.7 mph E2.7 kmh E 4.2 mph6.8 kmh 30.60 in1036.2 mb 0.00 in0.0 mm 0.00 in0.0 mm 0.00 in0.0 mm
03:24 AM 9.7°F-12.4°C 1.0°F-17.2°C 67% Calm Calm 2.7 mph4.3 kmh 30.60 in1036.2 mb 0.00 in0.0 mm 0.00 in0.0 mm 0.00 in0.0 mm
03:25 AM 9.7°F-12.4°C 1.0°F-17.2°C 67% 1.7 mph E2.7 kmh E 2.7 mph4.3 kmh 30.60 in1036.2 mb 0.00 in0.0 mm 0.00 in0.0 mm 0.00 in0.0 mm
03:26 AM 9.7°F-12.4°C 1.0°F-17.2°C 67% 1.7 mph NE2.7 kmh NE 2.7 mph4.3 kmh 30.60 in1036.2 mb 0.00 in0.0 mm 0.00 in0.0 mm 0.00 in0.0 mm
03:27 AM 9.7°F-12.4°C 1.0°F-17.2°C 67% 1.7 mph ENE2.7 kmh ENE 2.7 mph4.3 kmh 30.60 in1036.2 mb 0.00 in0.0 mm 0.00 in0.0 mm 0.00 in0.0 mm
03:28 AM 9.7°F-12.4°C 1.0°F-17.2°C 67% 1.7 mph E2.7 kmh E 2.7 mph4.3 kmh 30.60 in1036.2 mb 0.00 in0.0 mm 0.00 in0.0 mm 0.00 in0.0 mm
03:29 AM 9.7°F-12.4°C 1.0°F-17.2°C 67% 2.2 mph NNE3.5 kmh NNE 2.7 mph4.3 kmh 30.60 in1036.2 mb 0.00 in0.0 mm 0.00 in0.0 mm 0.00 in0.0 mm
03:30 AM 9.9°F-12.3°C 0.8°F-17.3°C 66% 1.1 mph NNE1.8 kmh NNE 2.7 mph4.3 kmh 30.60 in1036.2 mb 0.00 in0.0 mm 0.00 in0.0 mm 0.00 in0.0 mm
03:31 AM 9.9°F-12.3°C 1.2°F-17.1°C 67% 1.7 mph W2.7 kmh W 2.7 mph4.3 kmh 30.60 in1036.2 mb 0.00 in0.0 mm 0.00 in0.0 mm 0.00 in0.0 mm
03:32 AM 9.9°F-12.3°C 1.2°F-17.1°C 67% 1.7 mph WNW2.7 kmh WNW 2.7 mph4.3 kmh 30.60 in1036.2 mb 0.00 in0.0 mm 0.00 in0.0 mm 0.00 in0.0 mm
03:33 AM 9.9°F-12.3°C 1.2°F-17.1°C 67% 2.7 mph E4.3 kmh E 2.7 mph4.3 kmh 30.60 in1036.2 mb 0.00 in0.0 mm 0.00 in0.0 mm 0.00 in0.0 mm
03:34 AM 9.9°F-12.3°C 1.2°F-17.1°C 67% 1.7 mph WNW2.7 kmh WNW 2.7 mph4.3 kmh 30.60 in1036.2 mb 0.00 in0.0 mm 0.00 in0.0 mm 0.00 in0.0 mm
03:35 AM 9.9°F-12.3°C 1.2°F-17.1°C 67% 1.7 mph WNW2.7 kmh WNW 2.7 mph4.3 kmh 30.60 in1036.2 mb 0.00 in0.0 mm 0.00 in0.0 mm 0.00 in0.0 mm
03:36 AM 9.9°F-12.3°C 1.2°F-17.1°C 67% 1.7 mph WNW2.7 kmh WNW 2.7 mph4.3 kmh 30.60 in1036.2 mb 0.00 in0.0 mm 0.00 in0.0 mm 0.00 in0.0 mm
03:37 AM 9.9°F-12.3°C 1.2°F-17.1°C 67% 1.7 mph W2.7 kmh W 2.7 mph4.3 kmh 30.60 in1036.2 mb 0.00 in0.0 mm 0.00 in0.0 mm 0.00 in0.0 mm
03:38 AM 9.9°F-12.3°C 1.2°F-17.1°C 67% 1.7 mph WNW2.7 kmh WNW 2.7 mph4.3 kmh 30.60 in1036.2 mb 0.00 in0.0 mm 0.00 in0.0 mm 0.00 in0.0 mm
03:39 AM 9.9°F-12.3°C 1.2°F-17.1°C 67% 1.1 mph W1.8 kmh W 2.7 mph4.3 kmh 30.60 in1036.2 mb 0.00 in0.0 mm 0.00 in0.0 mm 0.00 in0.0 mm
03:40 AM 10.0°F-12.2°C 1.6°F-16.9°C 68% 1.1 mph W1.8 kmh W 2.7 mph4.3 kmh 30.59 in1035.9 mb 0.00 in0.0 mm 0.00 in0.0 mm 0.00 in0.0 mm
03:41 AM 10.0°F-12.2°C 1.6°F-16.9°C 68% 1.1 mph NNE1.8 kmh NNE 2.7 mph4.3 kmh 30.59 in1035.9 mb 0.00 in0.0 mm 0.00 in0.0 mm 0.00 in0.0 mm
03:42 AM 10.0°F-12.2°C 1.6°F-16.9°C 68% Calm Calm 2.7 mph4.3 kmh 30.59 in1035.9 mb 0.00 in0.0 mm 0.00 in0.0 mm 0.00 in0.0 mm
03:43 AM 10.0°F-12.2°C 1.6°F-16.9°C 68% 1.7 mph WSW2.7 kmh WSW 2.7 mph4.3 kmh 30.59 in1035.9 mb 0.00 in0.0 mm 0.00 in0.0 mm 0.00 in0.0 mm
03:44 AM 10.2°F-12.1°C 1.8°F-16.8°C 68% 1.1 mph W1.8 kmh W 2.2 mph3.5 kmh 30.59 in1035.9 mb 0.00 in0.0 mm 0.00 in0.0 mm 0.00 in0.0 mm
03:45 AM 10.2°F-12.1°C 1.8°F-16.8°C 68% Calm Calm 2.2 mph3.5 kmh 30.59 in1035.9 mb 0.00 in0.0 mm 0.00 in0.0 mm 0.00 in0.0 mm
03:46 AM 10.2°F-12.1°C 1.8°F-16.8°C 68% 1.1 mph W1.8 kmh W 2.2 mph3.5 kmh 30.59 in1035.9 mb 0.00 in0.0 mm 0.00 in0.0 mm 0.00 in0.0 mm
03:47 AM 10.2°F-12.1°C 1.8°F-16.8°C 68% Calm Calm 2.2 mph3.5 kmh 30.59 in1035.9 mb 0.00 in0.0 mm 0.00 in0.0 mm 0.00 in0.0 mm
03:48 AM 10.0°F-12.2°C 1.6°F-16.9°C 68% Calm Calm 1.7 mph2.7 kmh 30.59 in1035.9 mb 0.00 in0.0 mm 0.00 in0.0 mm 0.00 in0.0 mm
03:49 AM 10.0°F-12.2°C 1.6°F-16.9°C 68% 1.7 mph W2.7 kmh W 1.7 mph2.7 kmh 30.59 in1035.9 mb 0.00 in0.0 mm 0.00 in0.0 mm 0.00 in0.0 mm
03:50 AM 9.9°F-12.3°C 1.2°F-17.1°C 67% 1.1 mph SW1.8 kmh SW 1.7 mph2.7 kmh 30.59 in1035.9 mb 0.00 in0.0 mm 0.00 in0.0 mm 0.00 in0.0 mm
03:51 AM 10.0°F-12.2°C 1.3°F-17.1°C 67% 2.2 mph W3.5 kmh W 2.2 mph3.5 kmh 30.59 in1035.9 mb 0.00 in0.0 mm 0.00 in0.0 mm 0.00 in0.0 mm
03:52 AM 10.0°F-12.2°C 1.3°F-17.1°C 67% 1.7 mph W2.7 kmh W 2.2 mph3.5 kmh 30.59 in1035.9 mb 0.00 in0.0 mm 0.00 in0.0 mm 0.00 in0.0 mm
03:53 AM 10.2°F-12.1°C 1.5°F-16.9°C 67% 1.1 mph NNW1.8 kmh NNW 2.2 mph3.5 kmh 30.59 in1035.9 mb 0.00 in0.0 mm 0.00 in0.0 mm 0.00 in0.0 mm
03:54 AM 9.9°F-12.3°C 1.2°F-17.1°C 67% 2.2 mph WNW3.5 kmh WNW 2.2 mph3.5 kmh 30.59 in1035.9 mb 0.00 in0.0 mm 0.00 in0.0 mm 0.00 in0.0 mm
03:55 AM 9.9°F-12.3°C 1.2°F-17.1°C 67% 2.2 mph WNW3.5 kmh WNW 2.2 mph3.5 kmh 30.59 in1035.9 mb 0.00 in0.0 mm 0.00 in0.0 mm 0.00 in0.0 mm
03:56 AM 9.9°F-12.3°C 1.2°F-17.1°C 67% 2.7 mph W4.3 kmh W 2.7 mph4.3 kmh 30.59 in1035.9 mb 0.00 in0.0 mm 0.00 in0.0 mm 0.00 in0.0 mm
03:57 AM 10.0°F-12.2°C 1.3°F-17.1°C 67% 2.2 mph WNW3.5 kmh WNW 2.7 mph4.3 kmh 30.59 in1035.9 mb 0.00 in0.0 mm 0.00 in0.0 mm 0.00 in0.0 mm
03:58 AM 10.0°F-12.2°C 1.3°F-17.1°C 67% 1.7 mph WNW2.7 kmh WNW 2.7 mph4.3 kmh 30.59 in1035.9 mb 0.00 in0.0 mm 0.00 in0.0 mm 0.00 in0.0 mm
03:59 AM 10.0°F-12.2°C 1.3°F-17.1°C 67% 1.1 mph NNW1.8 kmh NNW 2.7 mph4.3 kmh 30.59 in1035.9 mb 0.00 in0.0 mm 0.00 in0.0 mm 0.00 in0.0 mm
04:00 AM 10.0°F-12.2°C 1.9°F-16.7°C 69% 1.1 mph WSW1.8 kmh WSW 2.7 mph4.3 kmh 30.59 in1035.9 mb 0.00 in0.0 mm 0.00 in0.0 mm 0.00 in0.0 mm
04:01 AM 10.0°F-12.2°C 1.9°F-16.7°C 69% 1.1 mph NW1.8 kmh NW 2.7 mph4.3 kmh 30.59 in1035.9 mb 0.00 in0.0 mm 0.00 in0.0 mm 0.00 in0.0 mm
04:02 AM 9.9°F-12.3°C 1.5°F-16.9°C 68% 1.7 mph W2.7 kmh W 2.7 mph4.3 kmh 30.59 in1035.9 mb 0.00 in0.0 mm 0.00 in0.0 mm 0.00 in0.0 mm
04:03 AM 9.9°F-12.3°C 1.5°F-16.9°C 68% 2.2 mph WNW3.5 kmh WNW 2.7 mph4.3 kmh 30.59 in1035.9 mb 0.00 in0.0 mm 0.00 in0.0 mm 0.00 in0.0 mm
04:04 AM 9.9°F-12.3°C 1.2°F-17.1°C 67% 1.7 mph W2.7 kmh W 2.7 mph4.3 kmh 30.59 in1035.9 mb 0.00 in0.0 mm 0.00 in0.0 mm 0.00 in0.0 mm
04:05 AM 9.9°F-12.3°C 1.2°F-17.1°C 67% 1.7 mph W2.7 kmh W 2.7 mph4.3 kmh 30.59 in1035.9 mb 0.00 in0.0 mm 0.00 in0.0 mm 0.00 in0.0 mm
04:06 AM 9.9°F-12.3°C 1.2°F-17.1°C 67% Calm Calm 2.7 mph4.3 kmh 30.59 in1035.9 mb 0.00 in0.0 mm 0.00 in0.0 mm 0.00 in0.0 mm
04:07 AM 9.9°F-12.3°C 1.2°F-17.1°C 67% 1.1 mph W1.8 kmh W 2.7 mph4.3 kmh 30.59 in1035.9 mb 0.00 in0.0 mm 0.00 in0.0 mm 0.00 in0.0 mm
04:08 AM 9.9°F-12.3°C 1.2°F-17.1°C 67% 1.7 mph W2.7 kmh W 2.2 mph3.5 kmh 30.59 in1035.9 mb 0.00 in0.0 mm 0.00 in0.0 mm 0.00 in0.0 mm
04:09 AM 9.9°F-12.3°C 1.2°F-17.1°C 67% Calm Calm 2.2 mph3.5 kmh 30.59 in1035.9 mb 0.00 in0.0 mm 0.00 in0.0 mm 0.00 in0.0 mm
04:10 AM 9.9°F-12.3°C 1.2°F-17.1°C 67% 1.7 mph WNW2.7 kmh WNW 2.2 mph3.5 kmh 30.59 in1035.9 mb 0.00 in0.0 mm 0.00 in0.0 mm 0.00 in0.0 mm
04:11 AM 9.9°F-12.3°C 1.5°F-16.9°C 68% 1.7 mph W2.7 kmh W 2.2 mph3.5 kmh 30.59 in1035.9 mb 0.00 in0.0 mm 0.00 in0.0 mm 0.00 in0.0 mm
04:12 AM 9.9°F-12.3°C 1.5°F-16.9°C 68% Calm Calm 2.2 mph3.5 kmh 30.59 in1035.9 mb 0.00 in0.0 mm 0.00 in0.0 mm 0.00 in0.0 mm
04:13 AM 9.9°F-12.3°C 1.5°F-16.9°C 68% 1.7 mph WNW2.7 kmh WNW 2.2 mph3.5 kmh 30.59 in1035.9 mb 0.00 in0.0 mm 0.00 in0.0 mm 0.00 in0.0 mm
04:14 AM 9.9°F-12.3°C 1.2°F-17.1°C 67% 1.1 mph W1.8 kmh W 2.2 mph3.5 kmh 30.59 in1035.9 mb 0.00 in0.0 mm 0.00 in0.0 mm 0.00 in0.0 mm
04:15 AM 9.9°F-12.3°C 1.2°F-17.1°C 67% 1.7 mph WNW2.7 kmh WNW 1.7 mph2.7 kmh 30.59 in1035.9 mb 0.00 in0.0 mm 0.00 in0.0 mm 0.00 in0.0 mm
04:16 AM 9.9°F-12.3°C 1.2°F-17.1°C 67% 2.7 mph WNW4.3 kmh WNW 2.7 mph4.3 kmh 30.59 in1035.9 mb 0.00 in0.0 mm 0.00 in0.0 mm 0.00 in0.0 mm
04:17 AM 9.9°F-12.3°C 1.2°F-17.1°C 67% 1.7 mph W2.7 kmh W 2.7 mph4.3 kmh 30.59 in1035.9 mb 0.00 in0.0 mm 0.00 in0.0 mm 0.00 in0.0 mm
04:18 AM 9.9°F-12.3°C 1.2°F-17.1°C 67% 2.2 mph WNW3.5 kmh WNW 2.7 mph4.3 kmh 30.59 in1035.9 mb 0.00 in0.0 mm 0.00 in0.0 mm 0.00 in0.0 mm
04:19 AM 9.9°F-12.3°C 0.8°F-17.3°C 66% 2.2 mph NW3.5 kmh NW 2.7 mph4.3 kmh 30.59 in1035.9 mb 0.00 in0.0 mm 0.00 in0.0 mm 0.00 in0.0 mm
04:20 AM 9.9°F-12.3°C 0.8°F-17.3°C 66% 2.2 mph W3.5 kmh W 2.7 mph4.3 kmh 30.59 in1035.9 mb 0.00 in0.0 mm 0.00 in0.0 mm 0.00 in0.0 mm
04:21 AM 10.0°F-12.2°C 0.9°F-17.3°C 66% 2.2 mph W3.5 kmh W 2.7 mph4.3 kmh 30.59 in1035.9 mb 0.00 in0.0 mm 0.00 in0.0 mm 0.00 in0.0 mm
04:22 AM 10.0°F-12.2°C 0.9°F-17.3°C 66% 1.7 mph W2.7 kmh W 2.7 mph4.3 kmh 30.59 in1035.9 mb 0.00 in0.0 mm 0.00 in0.0 mm 0.00 in0.0 mm
04:23 AM 10.0°F-12.2°C 0.9°F-17.3°C 66% 1.7 mph WNW2.7 kmh WNW 2.7 mph4.3 kmh 30.59 in1035.9 mb 0.00 in0.0 mm 0.00 in0.0 mm 0.00 in0.0 mm
04:24 AM 10.0°F-12.2°C 0.9°F-17.3°C 66% 1.7 mph WNW2.7 kmh WNW 2.7 mph4.3 kmh 30.59 in1035.9 mb 0.00 in0.0 mm 0.00 in0.0 mm 0.00 in0.0 mm
04:25 AM 10.0°F-12.2°C 0.9°F-17.3°C 66% 1.1 mph SW1.8 kmh SW 2.7 mph4.3 kmh 30.59 in1035.9 mb 0.00 in0.0 mm 0.00 in0.0 mm 0.00 in0.0 mm
04:26 AM 10.0°F-12.2°C 0.9°F-17.3°C 66% 1.1 mph WSW1.8 kmh WSW 2.7 mph4.3 kmh 30.59 in1035.9 mb 0.00 in0.0 mm 0.00 in0.0 mm 0.00 in0.0 mm
04:27 AM 10.0°F-12.2°C 0.9°F-17.3°C 66% 3.2 mph WNW5.1 kmh WNW 3.2 mph5.1 kmh 30.59 in1035.9 mb 0.00 in0.0 mm 0.00 in0.0 mm 0.00 in0.0 mm
04:28 AM 10.0°F-12.2°C 0.9°F-17.3°C 66% 2.2 mph W3.5 kmh W 3.2 mph5.1 kmh 30.59 in1035.9 mb 0.00 in0.0 mm 0.00 in0.0 mm 0.00 in0.0 mm
04:29 AM 10.0°F-12.2°C 0.9°F-17.3°C 66% 1.7 mph WNW2.7 kmh WNW 3.2 mph5.1 kmh 30.59 in1035.9 mb 0.00 in0.0 mm 0.00 in0.0 mm 0.00 in0.0 mm
04:30 AM 10.0°F-12.2°C 0.9°F-17.3°C 66% 2.2 mph WNW3.5 kmh WNW 3.2 mph5.1 kmh 30.59 in1035.9 mb 0.00 in0.0 mm 0.00 in0.0 mm 0.00 in0.0 mm
04:31 AM 10.0°F-12.2°C 0.9°F-17.3°C 66% 2.2 mph WNW3.5 kmh WNW 3.2 mph5.1 kmh 30.59 in1035.9 mb 0.00 in0.0 mm 0.00 in0.0 mm 0.00 in0.0 mm
04:32 AM 10.0°F-12.2°C 0.9°F-17.3°C 66% 2.7 mph WNW4.3 kmh WNW 3.2 mph5.1 kmh 30.59 in1035.9 mb 0.00 in0.0 mm 0.00 in0.0 mm 0.00 in0.0 mm
04:33 AM 10.0°F-12.2°C 0.9°F-17.3°C 66% 1.7 mph W2.7 kmh W 3.2 mph5.1 kmh 30.59 in1035.9 mb 0.00 in0.0 mm 0.00 in0.0 mm 0.00 in0.0 mm
04:34 AM 10.0°F-12.2°C 0.9°F-17.3°C 66% 2.2 mph NW3.5 kmh NW 3.2 mph5.1 kmh 30.59 in1035.9 mb 0.00 in0.0 mm 0.00 in0.0 mm 0.00 in0.0 mm
04:35 AM 10.0°F-12.2°C 0.9°F-17.3°C 66% 1.7 mph NNW2.7 kmh NNW 3.2 mph5.1 kmh 30.59 in1035.9 mb 0.00 in0.0 mm 0.00 in0.0 mm 0.00 in0.0 mm
04:36 AM 10.0°F-12.2°C 0.9°F-17.3°C 66% 1.7 mph NW2.7 kmh NW 3.2 mph5.1 kmh 30.59 in1035.9 mb 0.00 in0.0 mm 0.00 in0.0 mm 0.00 in0.0 mm
04:37 AM 10.0°F-12.2°C 0.9°F-17.3°C 66% 1.1 mph WNW1.8 kmh WNW 3.2 mph5.1 kmh 30.59 in1035.9 mb 0.00 in0.0 mm 0.00 in0.0 mm 0.00 in0.0 mm
04:38 AM 10.0°F-12.2°C 0.9°F-17.3°C 66% 2.2 mph NW3.5 kmh NW 2.7 mph4.3 kmh 30.59 in1035.9 mb 0.00 in0.0 mm 0.00 in0.0 mm 0.00 in0.0 mm
04:39 AM 10.0°F-12.2°C 0.9°F-17.3°C 66% 1.1 mph W1.8 kmh W 2.7 mph4.3 kmh 30.59 in1035.9 mb 0.00 in0.0 mm 0.00 in0.0 mm 0.00 in0.0 mm
04:40 AM 10.0°F-12.2°C 0.9°F-17.3°C 66% 1.1 mph SSE1.8 kmh SSE 2.7 mph4.3 kmh 30.59 in1035.9 mb 0.00 in0.0 mm 0.00 in0.0 mm 0.00 in0.0 mm
04:41 AM 10.0°F-12.2°C 0.9°F-17.3°C 66% 1.1 mph NE1.8 kmh NE 2.7 mph4.3 kmh 30.59 in1035.9 mb 0.00 in0.0 mm 0.00 in0.0 mm 0.00 in0.0 mm
04:42 AM 10.0°F-12.2°C 1.3°F-17.1°C 67% 1.7 mph NE2.7 kmh NE 2.7 mph4.3 kmh 30.59 in1035.9 mb 0.00 in0.0 mm 0.00 in0.0 mm 0.00 in0.0 mm
04:43 AM 9.9°F-12.3°C 1.2°F-17.1°C 67% Calm Calm 2.7 mph4.3 kmh 30.59 in1035.9 mb 0.00 in0.0 mm 0.00 in0.0 mm 0.00 in0.0 mm
04:44 AM 9.9°F-12.3°C 0.8°F-17.3°C 66% Calm Calm 2.7 mph4.3 kmh 30.59 in1035.9 mb 0.00 in0.0 mm 0.00 in0.0 mm 0.00 in0.0 mm
04:45 AM 9.9°F-12.3°C 0.8°F-17.3°C 66% 1.1 mph SSE1.8 kmh SSE 2.7 mph4.3 kmh 30.59 in1035.9 mb 0.00 in0.0 mm 0.00 in0.0 mm 0.00 in0.0 mm
04:46 AM 9.9°F-12.3°C 0.8°F-17.3°C 66% 1.1 mph WNW1.8 kmh WNW 2.7 mph4.3 kmh 30.59 in1035.9 mb 0.00 in0.0 mm 0.00 in0.0 mm 0.00 in0.0 mm
04:47 AM 9.9°F-12.3°C 0.8°F-17.3°C 66% Calm Calm 2.7 mph4.3 kmh 30.59 in1035.9 mb 0.00 in0.0 mm 0.00 in0.0 mm 0.00 in0.0 mm
04:48 AM 9.9°F-12.3°C 0.8°F-17.3°C 66% 1.1 mph SE1.8 kmh SE 2.2 mph3.5 kmh 30.59 in1035.9 mb 0.00 in0.0 mm 0.00 in0.0 mm 0.00 in0.0 mm
04:49 AM 9.9°F-12.3°C 0.8°F-17.3°C 66% Calm Calm 1.7 mph2.7 kmh 30.59 in1035.9 mb 0.00 in0.0 mm 0.00 in0.0 mm 0.00 in0.0 mm
04:50 AM 9.7°F-12.4°C 0.7°F-17.4°C 66% 1.7 mph NE2.7 kmh NE 1.7 mph2.7 kmh 30.59 in1035.9 mb 0.00 in0.0 mm 0.00 in0.0 mm 0.00 in0.0 mm
04:51 AM 9.7°F-12.4°C 0.3°F-17.6°C 65% 1.1 mph ENE1.8 kmh ENE 1.7 mph2.7 kmh 30.59 in1035.9 mb 0.00 in0.0 mm 0.00 in0.0 mm 0.00 in0.0 mm
04:52 AM 9.5°F-12.5°C 0.1°F-17.7°C 65% 1.1 mph NNE1.8 kmh NNE 1.7 mph2.7 kmh 30.59 in1035.9 mb 0.00 in0.0 mm 0.00 in0.0 mm 0.00 in0.0 mm
04:53 AM 9.7°F-12.4°C 0.3°F-17.6°C 65% 1.1 mph W1.8 kmh W 1.7 mph2.7 kmh 30.59 in1035.9 mb 0.00 in0.0 mm 0.00 in0.0 mm 0.00 in0.0 mm
04:54 AM 9.7°F-12.4°C 0.3°F-17.6°C 65% Calm Calm 1.7 mph2.7 kmh 30.59 in1035.9 mb 0.00 in0.0 mm 0.00 in0.0 mm 0.00 in0.0 mm
04:55 AM 9.7°F-12.4°C 0.3°F-17.6°C 65% 1.7 mph WNW2.7 kmh WNW 1.7 mph2.7 kmh 30.59 in1035.9 mb 0.00 in0.0 mm 0.00 in0.0 mm 0.00 in0.0 mm
04:56 AM 9.5°F-12.5°C 0.1°F-17.7°C 65% 2.7 mph W4.3 kmh W 2.7 mph4.3 kmh 30.59 in1035.9 mb 0.00 in0.0 mm 0.00 in0.0 mm 0.00 in0.0 mm
04:57 AM 9.5°F-12.5°C 0.1°F-17.7°C 65% Calm Calm 2.7 mph4.3 kmh 30.59 in1035.9 mb 0.00 in0.0 mm 0.00 in0.0 mm 0.00 in0.0 mm
04:58 AM 9.5°F-12.5°C 0.5°F-17.5°C 66% 1.1 mph WNW1.8 kmh WNW 2.7 mph4.3 kmh 30.59 in1035.9 mb 0.00 in0.0 mm 0.00 in0.0 mm 0.00 in0.0 mm
04:59 AM 9.5°F-12.5°C 0.5°F-17.5°C 66% 1.1 mph WNW1.8 kmh WNW 2.7 mph4.3 kmh 30.59 in1035.9 mb 0.00 in0.0 mm 0.00 in0.0 mm 0.00 in0.0 mm
05:00 AM 9.5°F-12.5°C 0.5°F-17.5°C 66% 1.7 mph NE2.7 kmh NE 2.7 mph4.3 kmh 30.59 in1035.9 mb 0.00 in0.0 mm 0.00 in0.0 mm 0.00 in0.0 mm
05:01 AM 9.5°F-12.5°C 0.5°F-17.5°C 66% Calm Calm 2.7 mph4.3 kmh 30.59 in1035.9 mb 0.00 in0.0 mm 0.00 in0.0 mm 0.00 in0.0 mm
05:02 AM 9.5°F-12.5°C 0.5°F-17.5°C 66% 2.2 mph NNE3.5 kmh NNE 2.7 mph4.3 kmh 30.59 in1035.9 mb 0.00 in0.0 mm 0.00 in0.0 mm 0.00 in0.0 mm
05:03 AM 9.5°F-12.5°C 0.5°F-17.5°C 66% 2.7 mph E4.3 kmh E 2.7 mph4.3 kmh 30.59 in1035.9 mb 0.00 in0.0 mm 0.00 in0.0 mm 0.00 in0.0 mm
05:04 AM 9.5°F-12.5°C 0.1°F-17.7°C 65% 1.1 mph NE1.8 kmh NE 2.7 mph4.3 kmh 30.59 in1035.9 mb 0.00 in0.0 mm 0.00 in0.0 mm 0.00 in0.0 mm
05:05 AM 9.5°F-12.5°C 0.1°F-17.7°C 65% 1.1 mph NNE1.8 kmh NNE 2.7 mph4.3 kmh 30.59 in1035.9 mb 0.00 in0.0 mm 0.00 in0.0 mm 0.00 in0.0 mm
05:06 AM 9.5°F-12.5°C 0.1°F-17.7°C 65% 1.1 mph W1.8 kmh W 2.7 mph4.3 kmh 30.59 in1035.9 mb 0.00 in0.0 mm 0.00 in0.0 mm 0.00 in0.0 mm
05:07 AM 9.5°F-12.5°C 0.1°F-17.7°C 65% Calm Calm 2.7 mph4.3 kmh 30.59 in1035.9 mb 0.00 in0.0 mm 0.00 in0.0 mm 0.00 in0.0 mm
05:08 AM 9.5°F-12.5°C 0.1°F-17.7°C 65% Calm Calm 2.7 mph4.3 kmh 30.59 in1035.9 mb 0.00 in0.0 mm 0.00 in0.0 mm 0.00 in0.0 mm
05:09 AM 9.5°F-12.5°C 0.5°F-17.5°C 66% Calm Calm 2.7 mph4.3 kmh 30.59 in1035.9 mb 0.00 in0.0 mm 0.00 in0.0 mm 0.00 in0.0 mm
05:10 AM 9.7°F-12.4°C 1.0°F-17.2°C 67% Calm Calm 2.7 mph4.3 kmh 30.59 in1035.9 mb 0.00 in0.0 mm 0.00 in0.0 mm 0.00 in0.0 mm
05:11 AM 9.7°F-12.4°C 1.0°F-17.2°C 67% Calm Calm 2.7 mph4.3 kmh 30.59 in1035.9 mb 0.00 in0.0 mm 0.00 in0.0 mm 0.00 in0.0 mm
05:12 AM 9.5°F-12.5°C 1.1°F-17.2°C 68% Calm Calm 2.7 mph4.3 kmh 30.59 in1035.9 mb 0.00 in0.0 mm 0.00 in0.0 mm 0.00 in0.0 mm
05:13 AM 9.5°F-12.5°C 0.8°F-17.3°C 67% Calm Calm 2.7 mph4.3 kmh 30.59 in1035.9 mb 0.00 in0.0 mm 0.00 in0.0 mm 0.00 in0.0 mm
05:14 AM 9.5°F-12.5°C 0.8°F-17.3°C 67% 1.1 mph W1.8 kmh W 1.7 mph2.7 kmh 30.59 in1035.9 mb 0.00 in0.0 mm 0.00 in0.0 mm 0.00 in0.0 mm
05:15 AM 9.3°F-12.6°C 0.6°F-17.4°C 67% Calm Calm 1.7 mph2.7 kmh 30.59 in1035.9 mb 0.00 in0.0 mm 0.00 in0.0 mm 0.00 in0.0 mm
05:16 AM 9.3°F-12.6°C 0.6°F-17.4°C 67% Calm Calm 1.1 mph1.8 kmh 30.59 in1035.9 mb 0.00 in0.0 mm 0.00 in0.0 mm 0.00 in0.0 mm
05:17 AM 9.1°F-12.7°C 0.4°F-17.6°C 67% Calm Calm 1.1 mph1.8 kmh 30.59 in1035.9 mb 0.00 in0.0 mm 0.00 in0.0 mm 0.00 in0.0 mm
05:18 AM 9.0°F-12.8°C 0.3°F-17.6°C 67% Calm Calm 1.1 mph1.8 kmh 30.59 in1035.9 mb 0.00 in0.0 mm 0.00 in0.0 mm 0.00 in0.0 mm
05:19 AM 8.8°F-12.9°C -0.2°F-17.9°C 66% Calm Calm 1.1 mph1.8 kmh 30.59 in1035.9 mb 0.00 in0.0 mm 0.00 in0.0 mm 0.00 in0.0 mm
05:20 AM 8.8°F-12.9°C -0.2°F-17.9°C 66% Calm Calm 1.1 mph1.8 kmh 30.59 in1035.9 mb 0.00 in0.0 mm 0.00 in0.0 mm 0.00 in0.0 mm
05:21 AM 8.8°F-12.9°C -0.2°F-17.9°C 66% Calm Calm 1.1 mph1.8 kmh 30.59 in1035.9 mb 0.00 in0.0 mm 0.00 in0.0 mm 0.00 in0.0 mm
05:22 AM 8.8°F-12.9°C -0.2°F-17.9°C 66% Calm Calm 1.1 mph1.8 kmh 30.59 in1035.9 mb 0.00 in0.0 mm 0.00 in0.0 mm 0.00 in0.0 mm
05:23 AM 8.8°F-12.9°C -0.2°F-17.9°C 66% Calm Calm 1.1 mph1.8 kmh 30.59 in1035.9 mb 0.00 in0.0 mm 0.00 in0.0 mm 0.00 in0.0 mm
05:24 AM 8.8°F-12.9°C 0.1°F-17.7°C 67% 1.7 mph W2.7 kmh W 1.7 mph2.7 kmh 30.59 in1035.9 mb 0.00 in0.0 mm 0.00 in0.0 mm 0.00 in0.0 mm
05:25 AM 8.8°F-12.9°C 0.4°F-17.6°C 68% 1.7 mph W2.7 kmh W 1.7 mph2.7 kmh 30.59 in1035.9 mb 0.00 in0.0 mm 0.00 in0.0 mm 0.00 in0.0 mm
05:26 AM 8.8°F-12.9°C 0.4°F-17.6°C 68% 1.1 mph W1.8 kmh W 1.7 mph2.7 kmh 30.59 in1035.9 mb 0.00 in0.0 mm 0.00 in0.0 mm 0.00 in0.0 mm
05:27 AM 8.8°F-12.9°C 0.7°F-17.4°C 69% 1.1 mph W1.8 kmh W 1.7 mph2.7 kmh 30.59 in1035.9 mb 0.00 in0.0 mm 0.00 in0.0 mm 0.00 in0.0 mm
05:28 AM 8.8°F-12.9°C 1.4°F-17.0°C 71% 1.1 mph W1.8 kmh W 1.7 mph2.7 kmh 30.59 in1035.9 mb 0.00 in0.0 mm 0.00 in0.0 mm 0.00 in0.0 mm
05:29 AM 8.8°F-12.9°C 1.4°F-17.0°C 71% 1.1 mph W1.8 kmh W 1.7 mph2.7 kmh 30.59 in1035.9 mb 0.00 in0.0 mm 0.00 in0.0 mm 0.00 in0.0 mm
05:30 AM 9.0°F-12.8°C 1.2°F-17.1°C 70% 1.1 mph W1.8 kmh W 1.7 mph2.7 kmh 30.59 in1035.9 mb 0.00 in0.0 mm 0.00 in0.0 mm 0.00 in0.0 mm
05:31 AM 9.0°F-12.8°C 1.2°F-17.1°C 70% 1.1 mph WSW1.8 kmh WSW 1.7 mph2.7 kmh 30.59 in1035.9 mb 0.00 in0.0 mm 0.00 in0.0 mm 0.00 in0.0 mm
05:32 AM 9.0°F-12.8°C 1.2°F-17.1°C 70% 1.1 mph WSW1.8 kmh WSW 1.7 mph2.7 kmh 30.59 in1035.9 mb 0.00 in0.0 mm 0.00 in0.0 mm 0.00 in0.0 mm
05:33 AM 8.8°F-12.9°C 1.0°F-17.2°C 70% 1.1 mph WSW1.8 kmh WSW 1.7 mph2.7 kmh 30.59 in1035.9 mb 0.00 in0.0 mm 0.00 in0.0 mm 0.00 in0.0 mm
05:34 AM 9.0°F-12.8°C 1.2°F-17.1°C 70% 1.1 mph SW1.8 kmh SW 1.7 mph2.7 kmh 30.59 in1035.9 mb 0.00 in0.0 mm 0.00 in0.0 mm 0.00 in0.0 mm
05:35 AM 9.0°F-12.8°C 1.2°F-17.1°C 70% 1.1 mph WSW1.8 kmh WSW 1.7 mph2.7 kmh 30.59 in1035.9 mb 0.00 in0.0 mm 0.00 in0.0 mm 0.00 in0.0 mm
05:36 AM 9.0°F-12.8°C 1.2°F-17.1°C 70% Calm Calm 1.7 mph2.7 kmh 30.59 in1035.9 mb 0.00 in0.0 mm 0.00 in0.0 mm 0.00 in0.0 mm
05:37 AM 9.0°F-12.8°C 1.8°F-16.8°C 72% 1.1 mph SW1.8 kmh SW 1.1 mph1.8 kmh 30.59 in1035.9 mb 0.00 in0.0 mm 0.00 in0.0 mm 0.00 in0.0 mm
05:38 AM 9.0°F-12.8°C 1.8°F-16.8°C 72% Calm Calm 1.1 mph1.8 kmh 30.59 in1035.9 mb 0.00 in0.0 mm 0.00 in0.0 mm 0.00 in0.0 mm
05:39 AM 9.0°F-12.8°C 1.8°F-16.8°C 72% Calm Calm 1.1 mph1.8 kmh 30.59 in1035.9 mb 0.00 in0.0 mm 0.00 in0.0 mm 0.00 in0.0 mm
05:40 AM 8.8°F-12.9°C 1.6°F-16.9°C 72% Calm Calm 1.1 mph1.8 kmh 30.59 in1035.9 mb 0.00 in0.0 mm 0.00 in0.0 mm 0.00 in0.0 mm
05:41 AM 8.8°F-12.9°C 1.6°F-16.9°C 72% Calm Calm 1.1 mph1.8 kmh 30.60 in1036.2 mb 0.00 in0.0 mm 0.00 in0.0 mm 0.00 in0.0 mm
05:42 AM 8.8°F-12.9°C 1.9°F-16.7°C 73% Calm Calm 1.1 mph1.8 kmh 30.60 in1036.2 mb 0.00 in0.0 mm 0.00 in0.0 mm 0.00 in0.0 mm
05:43 AM 8.8°F-12.9°C 1.9°F-16.7°C 73% Calm Calm 1.1 mph1.8 kmh 30.60 in1036.2 mb 0.00 in0.0 mm 0.00 in0.0 mm 0.00 in0.0 mm
05:44 AM 8.8°F-12.9°C 1.6°F-16.9°C 72% Calm Calm 1.1 mph1.8 kmh 30.60 in1036.2 mb 0.00 in0.0 mm 0.00 in0.0 mm 0.00 in0.0 mm
05:45 AM 8.6°F-13.0°C 1.8°F-16.8°C 73% Calm Calm 1.1 mph1.8 kmh 30.60 in1036.2 mb 0.00 in0.0 mm 0.00 in0.0 mm 0.00 in0.0 mm
05:46 AM 8.6°F-13.0°C 1.8°F-16.8°C 73% Calm Calm 1.1 mph1.8 kmh 30.60 in1036.2 mb 0.00 in0.0 mm 0.00 in0.0 mm 0.00 in0.0 mm
05:47 AM 8.6°F-13.0°C 1.8°F-16.8°C 73% Calm Calm 1.1 mph1.8 kmh 30.60 in1036.2 mb 0.00 in0.0 mm 0.00 in0.0 mm 0.00 in0.0 mm
05:48 AM 8.6°F-13.0°C 1.8°F-16.8°C 73% Calm Calm -- 30.60 in1036.2 mb 0.00 in0.0 mm 0.00 in0.0 mm 0.00 in0.0 mm
05:49 AM 8.4°F-13.1°C 1.3°F-17.1°C 72% Calm Calm -- 30.60 in1036.2 mb 0.00 in0.0 mm 0.00 in0.0 mm 0.00 in0.0 mm
05:50 AM 8.4°F-13.1°C 1.3°F-17.1°C 72% Calm Calm -- 30.60 in1036.2 mb 0.00 in0.0 mm 0.00 in0.0 mm 0.00 in0.0 mm
05:51 AM 8.4°F-13.1°C 1.3°F-17.1°C 72% Calm Calm -- 30.60 in1036.2 mb 0.00 in0.0 mm 0.00 in0.0 mm 0.00 in0.0 mm
05:52 AM 8.1°F-13.3°C 1.0°F-17.2°C 72% Calm Calm -- 30.60 in1036.2 mb 0.00 in0.0 mm 0.00 in0.0 mm 0.00 in0.0 mm
05:53 AM 7.9°F-13.4°C 0.8°F-17.3°C 72% Calm Calm -- 30.60 in1036.2 mb 0.00 in0.0 mm 0.00 in0.0 mm 0.00 in0.0 mm
05:54 AM 7.9°F-13.4°C 0.8°F-17.3°C 72% Calm Calm -- 30.60 in1036.2 mb 0.00 in0.0 mm 0.00 in0.0 mm 0.00 in0.0 mm
05:55 AM 7.7°F-13.5°C 0.9°F-17.3°C 73% Calm Calm -- 30.60 in1036.2 mb 0.00 in0.0 mm 0.00 in0.0 mm 0.00 in0.0 mm
05:56 AM 7.7°F-13.5°C 1.5°F-16.9°C 75% Calm Calm -- 30.60 in1036.2 mb 0.00 in0.0 mm 0.00 in0.0 mm 0.00 in0.0 mm
05:57 AM 7.7°F-13.5°C 1.7°F-16.8°C 76% Calm Calm -- 30.60 in1036.2 mb 0.00 in0.0 mm 0.00 in0.0 mm 0.00 in0.0 mm
05:58 AM 7.5°F-13.6°C 1.8°F-16.8°C 77% Calm Calm -- 30.60 in1036.2 mb 0.00 in0.0 mm 0.00 in0.0 mm 0.00 in0.0 mm
05:59 AM 7.5°F-13.6°C 1.8°F-16.8°C 77% Calm Calm -- 30.60 in1036.2 mb 0.00 in0.0 mm 0.00 in0.0 mm 0.00 in0.0 mm
06:00 AM 7.5°F-13.6°C 1.8°F-16.8°C 77% Calm Calm -- 30.60 in1036.2 mb 0.00 in0.0 mm 0.00 in0.0 mm 0.00 in0.0 mm
06:01 AM 7.5°F-13.6°C 1.8°F-16.8°C 77% Calm Calm -- 30.60 in1036.2 mb 0.00 in0.0 mm 0.00 in0.0 mm 0.00 in0.0 mm
06:02 AM 7.3°F-13.7°C 1.9°F-16.7°C 78% Calm Calm -- 30.60 in1036.2 mb 0.00 in0.0 mm 0.00 in0.0 mm 0.00 in0.0 mm
06:03 AM 7.3°F-13.7°C 2.2°F-16.6°C 79% 1.7 mph W2.7 kmh W 1.7 mph2.7 kmh 30.60 in1036.2 mb 0.00 in0.0 mm 0.00 in0.0 mm 0.00 in0.0 mm
06:04 AM 7.3°F-13.7°C 2.2°F-16.6°C 79% 1.7 mph W2.7 kmh W 2.2 mph3.5 kmh 30.60 in1036.2 mb 0.00 in0.0 mm 0.00 in0.0 mm 0.00 in0.0 mm
06:05 AM 7.3°F-13.7°C 2.2°F-16.6°C 79% 1.1 mph WNW1.8 kmh WNW 2.2 mph3.5 kmh 30.60 in1036.2 mb 0.00 in0.0 mm 0.00 in0.0 mm 0.00 in0.0 mm
06:06 AM 7.3°F-13.7°C 2.2°F-16.6°C 79% 1.1 mph W1.8 kmh W 2.2 mph3.5 kmh 30.60 in1036.2 mb 0.00 in0.0 mm 0.00 in0.0 mm 0.00 in0.0 mm
06:07 AM 7.3°F-13.7°C 1.9°F-16.7°C 78% 1.7 mph W2.7 kmh W 2.2 mph3.5 kmh 30.60 in1036.2 mb 0.00 in0.0 mm 0.00 in0.0 mm 0.00 in0.0 mm
06:08 AM 7.3°F-13.7°C 1.4°F-17.0°C 76% 1.1 mph W1.8 kmh W 2.2 mph3.5 kmh 30.60 in1036.2 mb 0.00 in0.0 mm 0.00 in0.0 mm 0.00 in0.0 mm
06:09 AM 7.3°F-13.7°C 1.1°F-17.2°C 75% 1.7 mph W2.7 kmh W 2.2 mph3.5 kmh 30.60 in1036.2 mb 0.00 in0.0 mm 0.00 in0.0 mm 0.00 in0.0 mm
06:10 AM 7.5°F-13.6°C 1.0°F-17.2°C 74% 1.1 mph W1.8 kmh W 2.2 mph3.5 kmh 30.60 in1036.2 mb 0.00 in0.0 mm 0.00 in0.0 mm 0.00 in0.0 mm
06:11 AM 7.5°F-13.6°C 1.0°F-17.2°C 74% Calm Calm 2.2 mph3.5 kmh 30.60 in1036.2 mb 0.00 in0.0 mm 0.00 in0.0 mm 0.00 in0.0 mm
06:12 AM 7.5°F-13.6°C 1.0°F-17.2°C 74% Calm Calm 2.2 mph3.5 kmh 30.60 in1036.2 mb 0.00 in0.0 mm 0.00 in0.0 mm 0.00 in0.0 mm
06:13 AM 7.5°F-13.6°C 1.5°F-16.9°C 76% Calm Calm 2.2 mph3.5 kmh 30.60 in1036.2 mb 0.00 in0.0 mm 0.00 in0.0 mm 0.00 in0.0 mm
06:14 AM 7.5°F-13.6°C 1.5°F-16.9°C 76% Calm Calm 1.7 mph2.7 kmh 30.60 in1036.2 mb 0.00 in0.0 mm 0.00 in0.0 mm 0.00 in0.0 mm
06:15 AM 7.5°F-13.6°C 1.3°F-17.1°C 75% 1.1 mph W1.8 kmh W 1.7 mph2.7 kmh 30.60 in1036.2 mb 0.00 in0.0 mm 0.00 in0.0 mm 0.00 in0.0 mm
06:16 AM 7.5°F-13.6°C 1.0°F-17.2°C 74% Calm Calm 1.7 mph2.7 kmh 30.60 in1036.2 mb 0.00 in0.0 mm 0.00 in0.0 mm 0.00 in0.0 mm
06:17 AM 7.5°F-13.6°C 1.3°F-17.1°C 75% Calm Calm 1.7 mph2.7 kmh 30.61 in1036.6 mb 0.00 in0.0 mm 0.00 in0.0 mm 0.00 in0.0 mm
06:18 AM 7.5°F-13.6°C 1.3°F-17.1°C 75% Calm Calm 1.7 mph2.7 kmh 30.61 in1036.6 mb 0.00 in0.0 mm 0.00 in0.0 mm 0.00 in0.0 mm
06:19 AM 7.5°F-13.6°C 1.8°F-16.8°C 77% Calm Calm 1.7 mph2.7 kmh 30.61 in1036.6 mb 0.00 in0.0 mm 0.00 in0.0 mm 0.00 in0.0 mm
06:20 AM 7.5°F-13.6°C 1.8°F-16.8°C 77% Calm Calm 1.1 mph1.8 kmh 30.61 in1036.6 mb 0.00 in0.0 mm 0.00 in0.0 mm 0.00 in0.0 mm
06:21 AM 7.5°F-13.6°C 1.8°F-16.8°C 77% Calm Calm 1.1 mph1.8 kmh 30.61 in1036.6 mb 0.00 in0.0 mm 0.00 in0.0 mm 0.00 in0.0 mm
06:22 AM 7.5°F-13.6°C 1.8°F-16.8°C 77% Calm Calm 1.1 mph1.8 kmh 30.61 in1036.6 mb 0.00 in0.0 mm 0.00 in0.0 mm 0.00 in0.0 mm
06:23 AM 7.5°F-13.6°C 1.8°F-16.8°C 77% Calm Calm 1.1 mph1.8 kmh 30.61 in1036.6 mb 0.00 in0.0 mm 0.00 in0.0 mm 0.00 in0.0 mm
06:24 AM 7.5°F-13.6°C 1.8°F-16.8°C 77% Calm Calm 1.1 mph1.8 kmh 30.61 in1036.6 mb 0.00 in0.0 mm 0.00 in0.0 mm 0.00 in0.0 mm
06:25 AM 7.3°F-13.7°C 1.6°F-16.9°C 77% Calm Calm 1.1 mph1.8 kmh 30.61 in1036.6 mb 0.00 in0.0 mm 0.00 in0.0 mm 0.00 in0.0 mm
06:26 AM 7.3°F-13.7°C 1.4°F-17.0°C 76% Calm Calm -- 30.61 in1036.6 mb 0.00 in0.0 mm 0.00 in0.0 mm 0.00 in0.0 mm
06:27 AM 7.3°F-13.7°C 1.4°F-17.0°C 76% Calm Calm -- 30.61 in1036.6 mb 0.00 in0.0 mm 0.00 in0.0 mm 0.00 in0.0 mm
06:28 AM 7.3°F-13.7°C 1.4°F-17.0°C 76% Calm Calm -- 30.61 in1036.6 mb 0.00 in0.0 mm 0.00 in0.0 mm 0.00 in0.0 mm
06:29 AM 7.3°F-13.7°C 1.4°F-17.0°C 76% Calm Calm -- 30.61 in1036.6 mb 0.00 in0.0 mm 0.00 in0.0 mm 0.00 in0.0 mm
06:30 AM 7.2°F-13.8°C 1.3°F-17.1°C 76% Calm Calm -- 30.61 in1036.6 mb 0.00 in0.0 mm 0.00 in0.0 mm 0.00 in0.0 mm
06:31 AM 7.2°F-13.8°C 1.3°F-17.1°C 76% Calm Calm -- 30.61 in1036.6 mb 0.00 in0.0 mm 0.00 in0.0 mm 0.00 in0.0 mm
06:32 AM 7.2°F-13.8°C 1.3°F-17.1°C 76% Calm Calm -- 30.61 in1036.6 mb 0.00 in0.0 mm 0.00 in0.0 mm 0.00 in0.0 mm
06:33 AM 7.0°F-13.9°C 1.1°F-17.2°C 76% Calm Calm -- 30.61 in1036.6 mb 0.00 in0.0 mm 0.00 in0.0 mm 0.00 in0.0 mm
06:34 AM 7.0°F-13.9°C 1.1°F-17.2°C 76% Calm Calm -- 30.61 in1036.6 mb 0.00 in0.0 mm 0.00 in0.0 mm 0.00 in0.0 mm
06:35 AM 7.0°F-13.9°C 0.8°F-17.3°C 75% Calm Calm -- 30.61 in1036.6 mb 0.00 in0.0 mm 0.00 in0.0 mm 0.00 in0.0 mm
06:36 AM 6.8°F-14.0°C 0.6°F-17.4°C 75% Calm Calm -- 30.61 in1036.6 mb 0.00 in0.0 mm 0.00 in0.0 mm 0.00 in0.0 mm
06:37 AM 6.8°F-14.0°C 0.6°F-17.4°C 75% Calm Calm -- 30.61 in1036.6 mb 0.00 in0.0 mm 0.00 in0.0 mm 0.00 in0.0 mm
06:38 AM 6.8°F-14.0°C 0.6°F-17.4°C 75% Calm Calm -- 30.61 in1036.6 mb 0.00 in0.0 mm 0.00 in0.0 mm 0.00 in0.0 mm
06:39 AM 6.8°F-14.0°C 0.6°F-17.4°C 75% Calm Calm -- 30.61 in1036.6 mb 0.00 in0.0 mm 0.00 in0.0 mm 0.00 in0.0 mm
06:40 AM 6.8°F-14.0°C 0.6°F-17.4°C 75% Calm Calm -- 30.61 in1036.6 mb 0.00 in0.0 mm 0.00 in0.0 mm 0.00 in0.0 mm
06:41 AM 6.8°F-14.0°C 0.9°F-17.3°C 76% Calm Calm -- 30.61 in1036.6 mb 0.00 in0.0 mm 0.00 in0.0 mm 0.00 in0.0 mm
06:42 AM 6.8°F-14.0°C 0.9°F-17.3°C 76% Calm Calm -- 30.61 in1036.6 mb 0.00 in0.0 mm 0.00 in0.0 mm 0.00 in0.0 mm
06:43 AM 6.8°F-14.0°C 0.9°F-17.3°C 76% Calm Calm -- 30.61 in1036.6 mb 0.00 in0.0 mm 0.00 in0.0 mm 0.00 in0.0 mm
06:44 AM 6.8°F-14.0°C 0.9°F-17.3°C 76% Calm Calm -- 30.61 in1036.6 mb 0.00 in0.0 mm 0.00 in0.0 mm 0.00 in0.0 mm
06:45 AM 6.8°F-14.0°C 1.1°F-17.2°C 77% Calm Calm -- 30.61 in1036.6 mb 0.00 in0.0 mm 0.00 in0.0 mm 0.00 in0.0 mm
06:46 AM 7.0°F-13.9°C 1.9°F-16.7°C 79% Calm Calm -- 30.61 in1036.6 mb 0.00 in0.0 mm 0.00 in0.0 mm 0.00 in0.0 mm
06:47 AM 7.0°F-13.9°C 1.6°F-16.9°C 78% Calm Calm -- 30.61 in1036.6 mb 0.00 in0.0 mm 0.00 in0.0 mm 0.00 in0.0 mm
06:48 AM 6.8°F-14.0°C 1.4°F-17.0°C 78% Calm Calm -- 30.61 in1036.6 mb 0.00 in0.0 mm 0.00 in0.0 mm 0.00 in0.0 mm
06:49 AM 6.6°F-14.1°C 1.2°F-17.1°C 78% Calm Calm -- 30.61 in1036.6 mb 0.00 in0.0 mm 0.00 in0.0 mm 0.00 in0.0 mm
06:50 AM 6.6°F-14.1°C 1.2°F-17.1°C 78% Calm Calm -- 30.61 in1036.6 mb 0.00 in0.0 mm 0.00 in0.0 mm 0.00 in0.0 mm
06:51 AM 6.6°F-14.1°C 1.2°F-17.1°C 78% Calm Calm -- 30.61 in1036.6 mb 0.00 in0.0 mm 0.00 in0.0 mm 0.00 in0.0 mm
06:52 AM 6.6°F-14.1°C 1.5°F-16.9°C 79% Calm Calm -- 30.61 in1036.6 mb 0.00 in0.0 mm 0.00 in0.0 mm 0.00 in0.0 mm
06:53 AM 6.6°F-14.1°C 1.5°F-16.9°C 79% Calm Calm -- 30.62 in1036.9 mb 0.00 in0.0 mm 0.00 in0.0 mm 0.00 in0.0 mm
06:54 AM 6.6°F-14.1°C 1.5°F-16.9°C 79% Calm Calm -- 30.62 in1036.9 mb 0.00 in0.0 mm 0.00 in0.0 mm 0.00 in0.0 mm
06:55 AM 6.6°F-14.1°C 1.5°F-16.9°C 79% Calm Calm -- 30.62 in1036.9 mb 0.00 in0.0 mm 0.00 in0.0 mm 0.00 in0.0 mm
06:56 AM 6.8°F-14.0°C 2.2°F-16.6°C 81% Calm Calm -- 30.62 in1036.9 mb 0.00 in0.0 mm 0.00 in0.0 mm 0.00 in0.0 mm
06:57 AM 6.8°F-14.0°C 2.5°F-16.4°C 82% Calm Calm -- 30.62 in1036.9 mb 0.00 in0.0 mm 0.00 in0.0 mm 0.00 in0.0 mm
06:58 AM 7.2°F-13.8°C 3.4°F-15.9°C 84% Calm Calm -- 30.62 in1036.9 mb 0.00 in0.0 mm 0.00 in0.0 mm 0.00 in0.0 mm
06:59 AM 7.3°F-13.7°C 3.2°F-16.0°C 83% Calm Calm -- 30.62 in1036.9 mb 0.00 in0.0 mm 0.00 in0.0 mm 0.00 in0.0 mm
07:00 AM 7.5°F-13.6°C 3.2°F-16.0°C 82% 1.1 mph SSW1.8 kmh SSW 1.1 mph1.8 kmh 30.62 in1036.9 mb 0.00 in0.0 mm 0.00 in0.0 mm 0.00 in0.0 mm
07:01 AM 7.9°F-13.4°C 3.3°F-15.9°C 81% 1.7 mph SSW2.7 kmh SSW 1.7 mph2.7 kmh 30.62 in1036.9 mb 0.00 in0.0 mm 0.00 in0.0 mm 0.00 in0.0 mm
07:02 AM 8.1°F-13.3°C 3.0°F-16.1°C 79% 1.1 mph S1.8 kmh S 1.7 mph2.7 kmh 30.62 in1036.9 mb 0.00 in0.0 mm 0.00 in0.0 mm 0.00 in0.0 mm
07:03 AM 8.1°F-13.3°C 2.7°F-16.3°C 78% 1.7 mph S2.7 kmh S 1.7 mph2.7 kmh 30.62 in1036.9 mb 0.00 in0.0 mm 0.00 in0.0 mm 0.00 in0.0 mm
07:04 AM 8.1°F-13.3°C 2.4°F-16.4°C 77% 1.1 mph SSW1.8 kmh SSW 1.7 mph2.7 kmh 30.62 in1036.9 mb 0.00 in0.0 mm 0.00 in0.0 mm 0.00 in0.0 mm
07:05 AM 7.9°F-13.4°C 1.9°F-16.7°C 76% 1.7 mph SSE2.7 kmh SSE 1.7 mph2.7 kmh 30.62 in1036.9 mb 0.00 in0.0 mm 0.00 in0.0 mm 0.00 in0.0 mm
07:06 AM 7.7°F-13.5°C 1.7°F-16.8°C 76% 1.1 mph SE1.8 kmh SE 1.7 mph2.7 kmh 30.62 in1036.9 mb 0.00 in0.0 mm 0.00 in0.0 mm 0.00 in0.0 mm
07:07 AM 7.3°F-13.7°C 1.6°F-16.9°C 77% 1.7 mph SE2.7 kmh SE 1.7 mph2.7 kmh 30.62 in1036.9 mb 0.00 in0.0 mm 0.00 in0.0 mm 0.00 in0.0 mm
07:08 AM 7.2°F-13.8°C 1.8°F-16.8°C 78% Calm Calm 1.7 mph2.7 kmh 30.62 in1036.9 mb 0.00 in0.0 mm 0.00 in0.0 mm 0.00 in0.0 mm
07:09 AM 7.2°F-13.8°C 1.8°F-16.8°C 78% 1.7 mph ESE2.7 kmh ESE 1.7 mph2.7 kmh 30.62 in1036.9 mb 0.00 in0.0 mm 0.00 in0.0 mm 0.00 in0.0 mm
07:10 AM 7.0°F-13.9°C 1.6°F-16.9°C 78% 1.1 mph SSE1.8 kmh SSE 1.7 mph2.7 kmh 30.62 in1036.9 mb 0.00 in0.0 mm 0.00 in0.0 mm 0.00 in0.0 mm
07:11 AM 7.0°F-13.9°C 1.6°F-16.9°C 78% Calm Calm 1.7 mph2.7 kmh 30.62 in1036.9 mb 0.00 in0.0 mm 0.00 in0.0 mm 0.00 in0.0 mm
07:12 AM 7.0°F-13.9°C 1.6°F-16.9°C 78% Calm Calm 1.7 mph2.7 kmh 30.62 in1036.9 mb 0.00 in0.0 mm 0.00 in0.0 mm 0.00 in0.0 mm
07:13 AM 7.0°F-13.9°C 1.9°F-16.7°C 79% Calm Calm 1.7 mph2.7 kmh 30.62 in1036.9 mb 0.00 in0.0 mm 0.00 in0.0 mm 0.00 in0.0 mm
07:14 AM 7.0°F-13.9°C 1.9°F-16.7°C 79% Calm Calm 1.7 mph2.7 kmh 30.62 in1036.9 mb 0.00 in0.0 mm 0.00 in0.0 mm 0.00 in0.0 mm
07:15 AM 7.0°F-13.9°C 1.9°F-16.7°C 79% Calm Calm 1.7 mph2.7 kmh 30.62 in1036.9 mb 0.00 in0.0 mm 0.00 in0.0 mm 0.00 in0.0 mm
07:16 AM 7.0°F-13.9°C 2.2°F-16.6°C 80% Calm Calm 1.7 mph2.7 kmh 30.62 in1036.9 mb 0.00 in0.0 mm 0.00 in0.0 mm 0.00 in0.0 mm
07:17 AM 7.0°F-13.9°C 2.2°F-16.6°C 80% Calm Calm 1.7 mph2.7 kmh 30.63 in1037.3 mb 0.00 in0.0 mm 0.00 in0.0 mm 0.00 in0.0 mm
07:18 AM 7.0°F-13.9°C 2.2°F-16.6°C 80% Calm Calm 1.7 mph2.7 kmh 30.63 in1037.3 mb 0.00 in0.0 mm 0.00 in0.0 mm 0.00 in0.0 mm
07:19 AM 7.0°F-13.9°C 1.9°F-16.7°C 79% Calm Calm 1.7 mph2.7 kmh 30.63 in1037.3 mb 0.00 in0.0 mm 0.00 in0.0 mm 0.00 in0.0 mm
07:20 AM 6.8°F-14.0°C 1.7°F-16.8°C 79% Calm Calm 1.1 mph1.8 kmh 30.63 in1037.3 mb 0.00 in0.0 mm 0.00 in0.0 mm 0.00 in0.0 mm
07:21 AM 6.6°F-14.1°C 1.5°F-16.9°C 79% 1.1 mph W1.8 kmh W 1.1 mph1.8 kmh 30.63 in1037.3 mb 0.00 in0.0 mm 0.00 in0.0 mm 0.00 in0.0 mm
07:22 AM 6.4°F-14.2°C 1.6°F-16.9°C 80% Calm Calm 1.1 mph1.8 kmh 30.63 in1037.3 mb 0.00 in0.0 mm 0.00 in0.0 mm 0.00 in0.0 mm
07:23 AM 6.3°F-14.3°C 1.7°F-16.8°C 81% Calm Calm 1.1 mph1.8 kmh 30.63 in1037.3 mb 0.00 in0.0 mm 0.00 in0.0 mm 0.00 in0.0 mm
07:24 AM 6.1°F-14.4°C 1.8°F-16.8°C 82% 1.1 mph W1.8 kmh W 1.1 mph1.8 kmh 30.63 in1037.3 mb 0.00 in0.0 mm 0.00 in0.0 mm 0.00 in0.0 mm
07:25 AM 6.1°F-14.4°C 2.1°F-16.6°C 83% 1.1 mph W1.8 kmh W 1.1 mph1.8 kmh 30.63 in1037.3 mb 0.00 in0.0 mm 0.00 in0.0 mm 0.00 in0.0 mm
07:26 AM 6.1°F-14.4°C 2.1°F-16.6°C 83% Calm Calm 1.1 mph1.8 kmh 30.63 in1037.3 mb 0.00 in0.0 mm 0.00 in0.0 mm 0.00 in0.0 mm
07:27 AM 6.1°F-14.4°C 2.1°F-16.6°C 83% Calm Calm 1.1 mph1.8 kmh 30.63 in1037.3 mb 0.00 in0.0 mm 0.00 in0.0 mm 0.00 in0.0 mm
07:28 AM 6.1°F-14.4°C 1.8°F-16.8°C 82% Calm Calm 1.1 mph1.8 kmh 30.63 in1037.3 mb 0.00 in0.0 mm 0.00 in0.0 mm 0.00 in0.0 mm
07:29 AM 6.1°F-14.4°C 1.8°F-16.8°C 82% Calm Calm 1.1 mph1.8 kmh 30.62 in1036.9 mb 0.00 in0.0 mm 0.00 in0.0 mm 0.00 in0.0 mm
07:30 AM 6.1°F-14.4°C 2.1°F-16.6°C 83% Calm Calm 1.1 mph1.8 kmh 30.62 in1036.9 mb 0.00 in0.0 mm 0.00 in0.0 mm 0.00 in0.0 mm
07:31 AM 6.1°F-14.4°C 2.3°F-16.5°C 84% Calm Calm 1.1 mph1.8 kmh 30.62 in1036.9 mb 0.00 in0.0 mm 0.00 in0.0 mm 0.00 in0.0 mm
07:32 AM 6.1°F-14.4°C 2.3°F-16.5°C 84% Calm Calm 1.1 mph1.8 kmh 30.62 in1036.9 mb 0.00 in0.0 mm 0.00 in0.0 mm 0.00 in0.0 mm
07:33 AM 6.3°F-14.3°C 2.3°F-16.5°C 83% Calm Calm 1.1 mph1.8 kmh 30.62 in1036.9 mb 0.00 in0.0 mm 0.00 in0.0 mm 0.00 in0.0 mm
07:34 AM 6.3°F-14.3°C 2.0°F-16.7°C 82% Calm Calm 1.1 mph1.8 kmh 30.62 in1036.9 mb 0.00 in0.0 mm 0.00 in0.0 mm 0.00 in0.0 mm
07:35 AM 6.3°F-14.3°C 2.0°F-16.7°C 82% Calm Calm 1.1 mph1.8 kmh 30.62 in1036.9 mb 0.00 in0.0 mm 0.00 in0.0 mm 0.00 in0.0 mm
07:36 AM 6.3°F-14.3°C 2.0°F-16.7°C 82% Calm Calm -- 30.62 in1036.9 mb 0.00 in0.0 mm 0.00 in0.0 mm 0.00 in0.0 mm
07:37 AM 6.1°F-14.4°C 1.8°F-16.8°C 82% Calm Calm -- 30.62 in1036.9 mb 0.00 in0.0 mm 0.00 in0.0 mm 0.00 in0.0 mm
07:38 AM 6.1°F-14.4°C 1.8°F-16.8°C 82% Calm Calm -- 30.62 in1036.9 mb 0.00 in0.0 mm 0.00 in0.0 mm 0.00 in0.0 mm
07:39 AM 6.1°F-14.4°C 1.8°F-16.8°C 82% Calm Calm -- 30.62 in1036.9 mb 0.00 in0.0 mm 0.00 in0.0 mm 0.00 in0.0 mm
07:40 AM 6.1°F-14.4°C 1.8°F-16.8°C 82% Calm Calm -- 30.62 in1036.9 mb 0.00 in0.0 mm 0.00 in0.0 mm 0.00 in0.0 mm
07:41 AM 6.1°F-14.4°C 1.8°F-16.8°C 82% Calm Calm -- 30.62 in1036.9 mb 0.00 in0.0 mm 0.00 in0.0 mm 0.00 in0.0 mm
07:42 AM 5.9°F-14.5°C 1.9°F-16.7°C 83% Calm Calm -- 30.62 in1036.9 mb 0.00 in0.0 mm 0.00 in0.0 mm 0.00 in0.0 mm
07:43 AM 5.9°F-14.5°C 2.1°F-16.6°C 84% Calm Calm -- 30.62 in1036.9 mb 0.00 in0.0 mm 0.00 in0.0 mm 0.00 in0.0 mm
07:44 AM 5.9°F-14.5°C 2.1°F-16.6°C 84% Calm Calm -- 30.62 in1036.9 mb 0.00 in0.0 mm 0.00 in0.0 mm 0.00 in0.0 mm
07:45 AM 5.9°F-14.5°C 2.1°F-16.6°C 84% Calm Calm 1.1 mph1.8 kmh 30.62 in1036.9 mb 0.00 in0.0 mm 0.00 in0.0 mm 0.00 in0.0 mm
07:46 AM 5.9°F-14.5°C 2.1°F-16.6°C 84% Calm Calm 1.1 mph1.8 kmh 30.62 in1036.9 mb 0.00 in0.0 mm 0.00 in0.0 mm 0.00 in0.0 mm
07:47 AM 5.9°F-14.5°C 2.1°F-16.6°C 84% Calm Calm 1.1 mph1.8 kmh 30.62 in1036.9 mb 0.00 in0.0 mm 0.00 in0.0 mm 0.00 in0.0 mm
07:48 AM 5.9°F-14.5°C 2.1°F-16.6°C 84% Calm Calm 1.1 mph1.8 kmh 30.62 in1036.9 mb 0.00 in0.0 mm 0.00 in0.0 mm 0.00 in0.0 mm
07:49 AM 6.1°F-14.4°C 2.6°F-16.3°C 85% Calm Calm 1.1 mph1.8 kmh 30.62 in1036.9 mb 0.00 in0.0 mm 0.00 in0.0 mm 0.00 in0.0 mm
07:50 AM 6.1°F-14.4°C 2.8°F-16.2°C 86% Calm Calm 1.1 mph1.8 kmh 30.62 in1036.9 mb 0.00 in0.0 mm 0.00 in0.0 mm 0.00 in0.0 mm
07:51 AM 6.1°F-14.4°C 2.8°F-16.2°C 86% Calm Calm 1.1 mph1.8 kmh 30.62 in1036.9 mb 0.00 in0.0 mm 0.00 in0.0 mm 0.00 in0.0 mm
07:52 AM 6.1°F-14.4°C 2.8°F-16.2°C 86% Calm Calm 1.1 mph1.8 kmh 30.62 in1036.9 mb 0.00 in0.0 mm 0.00 in0.0 mm 0.00 in0.0 mm
07:53 AM 6.3°F-14.3°C 3.0°F-16.1°C 86% Calm Calm 1.1 mph1.8 kmh 30.62 in1036.9 mb 0.00 in0.0 mm 0.00 in0.0 mm 0.00 in0.0 mm
07:54 AM 6.4°F-14.2°C 3.1°F-16.1°C 86% Calm Calm 1.1 mph1.8 kmh 30.62 in1036.9 mb 0.00 in0.0 mm 0.00 in0.0 mm 0.00 in0.0 mm
07:55 AM 7.2°F-13.8°C 3.9°F-15.6°C 86% Calm Calm -- 30.62 in1036.9 mb 0.00 in0.0 mm 0.00 in0.0 mm 0.00 in0.0 mm
07:56 AM 8.1°F-13.3°C 4.3°F-15.4°C 84% Calm Calm -- 30.62 in1036.9 mb 0.00 in0.0 mm 0.00 in0.0 mm 0.00 in0.0 mm
07:57 AM 9.1°F-12.7°C 4.5°F-15.3°C 81% Calm Calm 1.1 mph1.8 kmh 30.62 in1036.9 mb 0.00 in0.0 mm 0.00 in0.0 mm 0.00 in0.0 mm
07:58 AM 10.0°F-12.2°C 4.5°F-15.3°C 78% Calm Calm 1.1 mph1.8 kmh 30.62 in1036.9 mb 0.00 in0.0 mm 0.00 in0.0 mm 0.00 in0.0 mm
07:59 AM 10.2°F-12.1°C 4.7°F-15.2°C 78% Calm Calm 1.1 mph1.8 kmh 30.62 in1036.9 mb 0.00 in0.0 mm 0.00 in0.0 mm 0.00 in0.0 mm
08:00 AM 10.6°F-11.9°C 5.4°F-14.8°C 79% Calm Calm 1.1 mph1.8 kmh 30.62 in1036.9 mb 0.00 in0.0 mm 0.00 in0.0 mm 0.00 in0.0 mm
08:01 AM 10.0°F-12.2°C 5.1°F-14.9°C 80% 1.1 mph W1.8 kmh W 1.1 mph1.8 kmh 30.62 in1036.9 mb 0.00 in0.0 mm 0.00 in0.0 mm 0.00 in0.0 mm
08:02 AM 10.0°F-12.2°C 5.4°F-14.8°C 81% Calm Calm 1.1 mph1.8 kmh 30.62 in1036.9 mb 0.00 in0.0 mm 0.00 in0.0 mm 0.00 in0.0 mm
08:03 AM 10.8°F-11.8°C 5.9°F-14.5°C 80% Calm Calm 1.1 mph1.8 kmh 30.62 in1036.9 mb 0.00 in0.0 mm 0.00 in0.0 mm 0.00 in0.0 mm
08:04 AM 11.3°F-11.5°C 5.8°F-14.6°C 78% Calm Calm 1.1 mph1.8 kmh 30.62 in1036.9 mb 0.00 in0.0 mm 0.00 in0.0 mm 0.00 in0.0 mm
08:05 AM 11.7°F-11.3°C 5.9°F-14.5°C 77% Calm Calm 1.1 mph1.8 kmh 30.62 in1036.9 mb 0.00 in0.0 mm 0.00 in0.0 mm 0.00 in0.0 mm
08:06 AM 11.8°F-11.2°C 6.0°F-14.4°C 77% Calm Calm 1.1 mph1.8 kmh 30.62 in1036.9 mb 0.00 in0.0 mm 0.00 in0.0 mm 0.00 in0.0 mm
08:07 AM 12.0°F-11.1°C 5.9°F-14.5°C 76% 1.1 mph WSW1.8 kmh WSW 1.1 mph1.8 kmh 30.62 in1036.9 mb 0.00 in0.0 mm 0.00 in0.0 mm 0.00 in0.0 mm
08:08 AM 11.8°F-11.2°C 5.7°F-14.6°C 76% 1.1 mph W1.8 kmh W 1.7 mph2.7 kmh 30.62 in1036.9 mb 0.00 in0.0 mm 0.00 in0.0 mm 0.00 in0.0 mm
08:09 AM 12.0°F-11.1°C 5.6°F-14.7°C 75% 1.1 mph NNE1.8 kmh NNE 1.7 mph2.7 kmh 30.62 in1036.9 mb 0.00 in0.0 mm 0.00 in0.0 mm 0.00 in0.0 mm
08:10 AM 12.2°F-11.0°C 5.2°F-14.9°C 73% 1.1 mph WNW1.8 kmh WNW 1.7 mph2.7 kmh 30.62 in1036.9 mb 0.00 in0.0 mm 0.00 in0.0 mm 0.00 in0.0 mm
08:11 AM 12.2°F-11.0°C 5.2°F-14.9°C 73% 1.1 mph W1.8 kmh W 1.7 mph2.7 kmh 30.62 in1036.9 mb 0.00 in0.0 mm 0.00 in0.0 mm 0.00 in0.0 mm
08:12 AM 12.2°F-11.0°C 4.9°F-15.1°C 72% 2.2 mph W3.5 kmh W 2.2 mph3.5 kmh 30.62 in1036.9 mb 0.00 in0.0 mm 0.00 in0.0 mm 0.00 in0.0 mm
08:13 AM 12.6°F-10.8°C 4.7°F-15.2°C 70% 1.7 mph W2.7 kmh W 2.2 mph3.5 kmh 30.62 in1036.9 mb 0.00 in0.0 mm 0.00 in0.0 mm 0.00 in0.0 mm
08:14 AM 12.6°F-10.8°C 4.4°F-15.3°C 69% 1.1 mph W1.8 kmh W 2.2 mph3.5 kmh 30.62 in1036.9 mb 0.00 in0.0 mm 0.00 in0.0 mm 0.00 in0.0 mm
08:15 AM 12.7°F-10.7°C 4.2°F-15.4°C 68% 1.1 mph W1.8 kmh W 2.2 mph3.5 kmh 30.62 in1036.9 mb 0.00 in0.0 mm 0.00 in0.0 mm 0.00 in0.0 mm
08:16 AM 12.9°F-10.6°C 3.7°F-15.7°C 66% 2.2 mph WNW3.5 kmh WNW 2.2 mph3.5 kmh 30.62 in1036.9 mb 0.00 in0.0 mm 0.00 in0.0 mm 0.00 in0.0 mm
08:17 AM 13.3°F-10.4°C 3.8°F-15.7°C 65% 1.7 mph WNW2.7 kmh WNW 2.2 mph3.5 kmh 30.62 in1036.9 mb 0.00 in0.0 mm 0.00 in0.0 mm 0.00 in0.0 mm
08:18 AM 13.3°F-10.4°C 3.8°F-15.7°C 65% 2.2 mph W3.5 kmh W 2.2 mph3.5 kmh 30.62 in1036.9 mb 0.00 in0.0 mm 0.00 in0.0 mm 0.00 in0.0 mm
08:19 AM 13.3°F-10.4°C 3.1°F-16.1°C 63% 2.2 mph WNW3.5 kmh WNW 2.7 mph4.3 kmh 30.62 in1036.9 mb 0.00 in0.0 mm 0.00 in0.0 mm 0.00 in0.0 mm
08:20 AM 13.3°F-10.4°C 2.7°F-16.3°C 62% 1.1 mph SW1.8 kmh SW 2.7 mph4.3 kmh 30.62 in1036.9 mb 0.00 in0.0 mm 0.00 in0.0 mm 0.00 in0.0 mm
08:21 AM 13.6°F-10.2°C 3.0°F-16.1°C 62% 2.2 mph WNW3.5 kmh WNW 2.7 mph4.3 kmh 30.62 in1036.9 mb 0.00 in0.0 mm 0.00 in0.0 mm 0.00 in0.0 mm
08:22 AM 13.6°F-10.2°C 3.0°F-16.1°C 62% 2.2 mph WNW3.5 kmh WNW 2.7 mph4.3 kmh 30.62 in1036.9 mb 0.00 in0.0 mm 0.00 in0.0 mm 0.00 in0.0 mm
08:23 AM 13.6°F-10.2°C 2.7°F-16.3°C 61% 1.7 mph W2.7 kmh W 2.7 mph4.3 kmh 30.62 in1036.9 mb 0.00 in0.0 mm 0.00 in0.0 mm 0.00 in0.0 mm
08:24 AM 13.6°F-10.2°C 2.3°F-16.5°C 60% 1.1 mph NNE1.8 kmh NNE 2.7 mph4.3 kmh 30.62 in1036.9 mb 0.00 in0.0 mm 0.00 in0.0 mm 0.00 in0.0 mm
08:25 AM 14.0°F-10.0°C 2.7°F-16.3°C 60% 2.2 mph WNW3.5 kmh WNW 2.7 mph4.3 kmh 30.62 in1036.9 mb 0.00 in0.0 mm 0.00 in0.0 mm 0.00 in0.0 mm
08:26 AM 14.5°F-9.7°C 3.2°F-16.0°C 60% 1.1 mph NNW1.8 kmh NNW 2.7 mph4.3 kmh 30.62 in1036.9 mb 0.00 in0.0 mm 0.00 in0.0 mm 0.00 in0.0 mm
08:27 AM 14.9°F-9.5°C 3.2°F-16.0°C 59% 1.1 mph W1.8 kmh W 2.7 mph4.3 kmh 30.62 in1036.9 mb 0.00 in0.0 mm 0.00 in0.0 mm 0.00 in0.0 mm
08:28 AM 14.7°F-9.6°C 3.0°F-16.1°C 59% 2.2 mph W3.5 kmh W 2.7 mph4.3 kmh 30.62 in1036.9 mb 0.00 in0.0 mm 0.00 in0.0 mm 0.00 in0.0 mm
08:29 AM 14.5°F-9.7°C 2.8°F-16.2°C 59% 2.7 mph WNW4.3 kmh WNW 2.7 mph4.3 kmh 30.62 in1036.9 mb 0.00 in0.0 mm 0.00 in0.0 mm 0.00 in0.0 mm
08:30 AM 14.4°F-9.8°C 2.0°F-16.7°C 57% 2.7 mph NNE4.3 kmh NNE 2.7 mph4.3 kmh 30.62 in1036.9 mb 0.00 in0.0 mm 0.00 in0.0 mm 0.00 in0.0 mm
08:31 AM 14.7°F-9.6°C 2.3°F-16.5°C 57% 2.2 mph NNW3.5 kmh NNW 2.7 mph4.3 kmh 30.62 in1036.9 mb 0.00 in0.0 mm 0.00 in0.0 mm 0.00 in0.0 mm
08:32 AM 15.3°F-9.3°C 1.7°F-16.8°C 54% 2.7 mph NNE4.3 kmh NNE 3.2 mph5.1 kmh 30.62 in1036.9 mb 0.00 in0.0 mm 0.00 in0.0 mm 0.00 in0.0 mm
08:33 AM 15.6°F-9.1°C 1.6°F-16.9°C 53% 2.2 mph WSW3.5 kmh WSW 3.2 mph5.1 kmh 30.62 in1036.9 mb 0.00 in0.0 mm 0.00 in0.0 mm 0.00 in0.0 mm
08:34 AM 15.1°F-9.4°C 1.9°F-16.7°C 55% Calm Calm 3.2 mph5.1 kmh 30.62 in1036.9 mb 0.00 in0.0 mm 0.00 in0.0 mm 0.00 in0.0 mm
08:35 AM 15.4°F-9.2°C 2.2°F-16.6°C 55% 2.2 mph NNE3.5 kmh NNE 3.2 mph5.1 kmh 30.62 in1036.9 mb 0.00 in0.0 mm 0.00 in0.0 mm 0.00 in0.0 mm
08:36 AM 15.6°F-9.1°C 1.6°F-16.9°C 53% 1.1 mph N1.8 kmh N 3.2 mph5.1 kmh 30.62 in1036.9 mb 0.00 in0.0 mm 0.00 in0.0 mm 0.00 in0.0 mm
08:37 AM 15.8°F-9.0°C 1.3°F-17.1°C 52% 4.2 mph NE6.8 kmh NE 4.2 mph6.8 kmh 30.62 in1036.9 mb 0.00 in0.0 mm 0.00 in0.0 mm 0.00 in0.0 mm
08:38 AM 16.0°F-8.9°C 1.1°F-17.2°C 51% 1.7 mph NE2.7 kmh NE 4.2 mph6.8 kmh 30.62 in1036.9 mb 0.00 in0.0 mm 0.00 in0.0 mm 0.00 in0.0 mm
08:39 AM 16.2°F-8.8°C 1.3°F-17.1°C 51% 2.2 mph NNE3.5 kmh NNE 6.3 mph10.1 kmh 30.62 in1036.9 mb 0.00 in0.0 mm 0.00 in0.0 mm 0.00 in0.0 mm
08:40 AM 16.5°F-8.6°C 1.6°F-16.9°C 51% 1.1 mph SSE1.8 kmh SSE 6.3 mph10.1 kmh 30.62 in1036.9 mb 0.00 in0.0 mm 0.00 in0.0 mm 0.00 in0.0 mm
08:41 AM 16.5°F-8.6°C 1.6°F-16.9°C 51% 1.1 mph NE1.8 kmh NE 6.3 mph10.1 kmh 30.62 in1036.9 mb 0.00 in0.0 mm 0.00 in0.0 mm 0.00 in0.0 mm
08:42 AM 16.3°F-8.7°C 1.4°F-17.0°C 51% 2.7 mph WNW4.3 kmh WNW 6.3 mph10.1 kmh 30.62 in1036.9 mb 0.00 in0.0 mm 0.00 in0.0 mm 0.00 in0.0 mm
08:43 AM 16.2°F-8.8°C 1.7°F-16.8°C 52% 3.2 mph ESE5.1 kmh ESE 6.3 mph10.1 kmh 30.62 in1036.9 mb 0.00 in0.0 mm 0.00 in0.0 mm 0.00 in0.0 mm
08:44 AM 16.2°F-8.8°C 1.7°F-16.8°C 52% 2.7 mph N4.3 kmh N 6.3 mph10.1 kmh 30.62 in1036.9 mb 0.00 in0.0 mm 0.00 in0.0 mm 0.00 in0.0 mm
08:45 AM 16.3°F-8.7°C 1.4°F-17.0°C 51% 1.7 mph NNE2.7 kmh NNE 6.3 mph10.1 kmh 30.62 in1036.9 mb 0.00 in0.0 mm 0.00 in0.0 mm 0.00 in0.0 mm
08:46 AM 16.7°F-8.5°C 2.2°F-16.6°C 52% Calm Calm 6.3 mph10.1 kmh 30.62 in1036.9 mb 0.02 in0.5 mm 1.20 in30.5 mm 0.02 in0.5 mm
08:47 AM 17.1°F-8.3°C 2.5°F-16.4°C 52% 2.2 mph NW3.5 kmh NW 6.3 mph10.1 kmh 30.62 in1036.9 mb 0.05 in1.3 mm 1.80 in45.7 mm 0.05 in1.3 mm
08:48 AM 17.4°F-8.1°C 2.4°F-16.4°C 51% 1.7 mph NW2.7 kmh NW 6.3 mph10.1 kmh 30.62 in1036.9 mb 0.05 in1.3 mm 0.00 in0.0 mm 0.05 in1.3 mm
08:49 AM 17.8°F-7.9°C 2.8°F-16.2°C 51% 1.7 mph NW2.7 kmh NW 3.2 mph5.1 kmh 30.62 in1036.9 mb 0.05 in1.3 mm 0.00 in0.0 mm 0.05 in1.3 mm
08:50 AM 18.3°F-7.6°C 2.4°F-16.4°C 49% 1.7 mph NNE2.7 kmh NNE 3.2 mph5.1 kmh 30.62 in1036.9 mb 0.07 in1.8 mm 1.20 in30.5 mm 0.07 in1.8 mm
08:51 AM 18.3°F-7.6°C 1.9°F-16.7°C 48% Calm Calm 3.2 mph5.1 kmh 30.62 in1036.9 mb 0.07 in1.8 mm 0.00 in0.0 mm 0.07 in1.8 mm
08:52 AM 18.1°F-7.7°C 1.8°F-16.8°C 48% Calm Calm 3.2 mph5.1 kmh 30.62 in1036.9 mb 0.07 in1.8 mm 0.00 in0.0 mm 0.07 in1.8 mm
08:53 AM 17.8°F-7.9°C 2.3°F-16.5°C 50% Calm Calm 3.2 mph5.1 kmh 30.62 in1036.9 mb 0.07 in1.8 mm 0.00 in0.0 mm 0.07 in1.8 mm
08:54 AM 17.6°F-8.0°C 3.0°F-16.1°C 52% Calm Calm 3.2 mph5.1 kmh 30.62 in1036.9 mb 0.07 in1.8 mm 0.00 in0.0 mm 0.07 in1.8 mm
08:55 AM 17.6°F-8.0°C 3.0°F-16.1°C 52% Calm Calm 2.2 mph3.5 kmh 30.62 in1036.9 mb 0.07 in1.8 mm 0.00 in0.0 mm 0.07 in1.8 mm
08:56 AM 17.6°F-8.0°C 2.2°F-16.6°C 50% Calm Calm 2.2 mph3.5 kmh 30.62 in1036.9 mb 0.07 in1.8 mm 0.00 in0.0 mm 0.07 in1.8 mm
08:57 AM 17.6°F-8.0°C 1.7°F-16.8°C 49% Calm Calm 2.2 mph3.5 kmh 30.62 in1036.9 mb 0.07 in1.8 mm 0.00 in0.0 mm 0.07 in1.8 mm
08:58 AM 17.6°F-8.0°C 1.7°F-16.8°C 49% Calm Calm 1.7 mph2.7 kmh 30.62 in1036.9 mb 0.07 in1.8 mm 0.00 in0.0 mm 0.07 in1.8 mm
08:59 AM 17.6°F-8.0°C 1.7°F-16.8°C 49% Calm Calm 1.7 mph2.7 kmh 30.62 in1036.9 mb 0.07 in1.8 mm 0.00 in0.0 mm 0.07 in1.8 mm
09:00 AM 17.6°F-8.0°C 1.7°F-16.8°C 49% Calm Calm 1.7 mph2.7 kmh 30.62 in1036.9 mb 0.07 in1.8 mm 0.00 in0.0 mm 0.07 in1.8 mm